<?xml version="1.0" encoding="UTF-8" standalone="no" ?>
<gpx xmlns="http://www.topografix.com/GPX/1/1" xmlns:xsi="http://www.w3.org/2001/XMLSchema-instance" xsi:schemaLocation="http://www.topografix.com/GPX/1/1 http://www.topografix.com/GPX/1/1/gpx.xsd" version="1.1" creator="VisuGPX - https://www.visugpx.com">
  <metadata>
    <name>Mazères-Col de Larieu</name>
  </metadata>
  <trk>
    <name><![CDATA[Mazères-Col de Larieu]]></name>
    <trkseg>
      <trkpt lat="43.03055" lon="0.67335">
        <ele>436.726227</ele>
        <time>2022-08-09T13:33:24.274Z</time>
      </trkpt>
      <trkpt lat="43.03048" lon="0.6737">
        <ele>436.726227</ele>
        <time>2022-08-09T13:33:29.158Z</time>
      </trkpt>
      <trkpt lat="43.03043" lon="0.6747">
        <ele>436.684618</ele>
        <time>2022-08-09T13:33:42.551Z</time>
      </trkpt>
      <trkpt lat="43.03027" lon="0.67517">
        <ele>436.525836</ele>
        <time>2022-08-09T13:33:49.403Z</time>
      </trkpt>
      <trkpt lat="43.03009" lon="0.67609">
        <ele>436.23585</ele>
        <time>2022-08-09T13:34:02.322Z</time>
      </trkpt>
      <trkpt lat="43.0299" lon="0.67704">
        <ele>435.941774</ele>
        <time>2022-08-09T13:34:16.384Z</time>
      </trkpt>
      <trkpt lat="43.02987" lon="0.67771">
        <ele>435.756349</ele>
        <time>2022-08-09T13:34:26.493Z</time>
      </trkpt>
      <trkpt lat="43.03008" lon="0.67835">
        <ele>435.559901</ele>
        <time>2022-08-09T13:34:34.108Z</time>
      </trkpt>
      <trkpt lat="43.03028" lon="0.67923">
        <ele>435.304253</ele>
        <time>2022-08-09T13:34:42.664Z</time>
      </trkpt>
      <trkpt lat="43.03044" lon="0.6796">
        <ele>434.728911</ele>
        <time>2022-08-09T13:34:46.443Z</time>
      </trkpt>
      <trkpt lat="43.03055" lon="0.67971">
        <ele>434.481403</ele>
        <time>2022-08-09T13:34:47.886Z</time>
      </trkpt>
      <trkpt lat="43.03075" lon="0.67978">
        <ele>434.084821</ele>
        <time>2022-08-09T13:34:50.247Z</time>
      </trkpt>
      <trkpt lat="43.03104" lon="0.68075">
        <ele>432.612083</ele>
        <time>2022-08-09T13:34:58.563Z</time>
      </trkpt>
      <trkpt lat="43.03111" lon="0.68119">
        <ele>431.982579</ele>
        <time>2022-08-09T13:35:02.057Z</time>
      </trkpt>
      <trkpt lat="43.03135" lon="0.68173">
        <ele>430.971577</ele>
        <time>2022-08-09T13:35:06.827Z</time>
      </trkpt>
      <trkpt lat="43.0321" lon="0.68307">
        <ele>428.190227</ele>
        <time>2022-08-09T13:35:20.167Z</time>
      </trkpt>
      <trkpt lat="43.03311" lon="0.68427">
        <ele>425.685148</ele>
        <time>2022-08-09T13:35:34.908Z</time>
      </trkpt>
      <trkpt lat="43.03322" lon="0.68437">
        <ele>425.444964</ele>
        <time>2022-08-09T13:35:36.385Z</time>
      </trkpt>
      <trkpt lat="43.03389" lon="0.68501">
        <ele>424.436439</ele>
        <time>2022-08-09T13:35:45.746Z</time>
      </trkpt>
      <trkpt lat="43.03399" lon="0.68563">
        <ele>424.297824</ele>
        <time>2022-08-09T13:35:51.466Z</time>
      </trkpt>
      <trkpt lat="43.03333" lon="0.68688">
        <ele>424.113515</ele>
        <time>2022-08-09T13:36:09.661Z</time>
      </trkpt>
      <trkpt lat="43.03319" lon="0.68719">
        <ele>424.419547</ele>
        <time>2022-08-09T13:36:14.674Z</time>
      </trkpt>
      <trkpt lat="43.03316" lon="0.68742">
        <ele>424.609541</ele>
        <time>2022-08-09T13:36:18.412Z</time>
      </trkpt>
      <trkpt lat="43.0334" lon="0.68967">
        <ele>426.281017</ele>
        <time>2022-08-09T13:36:51.726Z</time>
      </trkpt>
      <trkpt lat="43.03341" lon="0.6909">
        <ele>426.851433</ele>
        <time>2022-08-09T13:37:07.968Z</time>
      </trkpt>
      <trkpt lat="43.03334" lon="0.69121">
        <ele>427.003138</ele>
        <time>2022-08-09T13:37:12.055Z</time>
      </trkpt>
      <trkpt lat="43.03334" lon="0.69168">
        <ele>427.048165</ele>
        <time>2022-08-09T13:37:16.943Z</time>
      </trkpt>
      <trkpt lat="43.03356" lon="0.69296">
        <ele>425.86851</ele>
        <time>2022-08-09T13:37:28.522Z</time>
      </trkpt>
      <trkpt lat="43.03387" lon="0.69381">
        <ele>425.011422</ele>
        <time>2022-08-09T13:37:36.333Z</time>
      </trkpt>
      <trkpt lat="43.03399" lon="0.69424">
        <ele>424.673652</ele>
        <time>2022-08-09T13:37:39.976Z</time>
      </trkpt>
      <trkpt lat="43.03387" lon="0.69516">
        <ele>424.011101</ele>
        <time>2022-08-09T13:37:47.436Z</time>
      </trkpt>
      <trkpt lat="43.03387" lon="0.69568">
        <ele>423.637912</ele>
        <time>2022-08-09T13:37:51.924Z</time>
      </trkpt>
      <trkpt lat="43.03399" lon="0.69654">
        <ele>423.94369</ele>
        <time>2022-08-09T13:38:01.926Z</time>
      </trkpt>
      <trkpt lat="43.03427" lon="0.69812">
        <ele>428.461498</ele>
        <time>2022-08-09T13:38:38.893Z</time>
      </trkpt>
      <trkpt lat="43.0343" lon="0.69883">
        <ele>430.542178</ele>
        <time>2022-08-09T13:38:59.079Z</time>
      </trkpt>
      <trkpt lat="43.0343" lon="0.69979">
        <ele>433.812626</ele>
        <time>2022-08-09T13:39:25.385Z</time>
      </trkpt>
      <trkpt lat="43.03438" lon="0.70025">
        <ele>435.40911</ele>
        <time>2022-08-09T13:39:37.711Z</time>
      </trkpt>
      <trkpt lat="43.03461" lon="0.70092">
        <ele>437.933339</ele>
        <time>2022-08-09T13:39:55.170Z</time>
      </trkpt>
      <trkpt lat="43.03467" lon="0.70139">
        <ele>438.252044</ele>
        <time>2022-08-09T13:40:04.287Z</time>
      </trkpt>
      <trkpt lat="43.03468" lon="0.7019">
        <ele>437.962946</ele>
        <time>2022-08-09T13:40:11.050Z</time>
      </trkpt>
      <trkpt lat="43.0343" lon="0.70334">
        <ele>437.087416</ele>
        <time>2022-08-09T13:40:23.403Z</time>
      </trkpt>
      <trkpt lat="43.0343" lon="0.70399">
        <ele>435.151122</ele>
        <time>2022-08-09T13:40:28.013Z</time>
      </trkpt>
      <trkpt lat="43.03437" lon="0.70477">
        <ele>432.513786</ele>
        <time>2022-08-09T13:40:33.404Z</time>
      </trkpt>
      <trkpt lat="43.03435" lon="0.70528">
        <ele>430.801137</ele>
        <time>2022-08-09T13:40:36.844Z</time>
      </trkpt>
      <trkpt lat="43.0339" lon="0.70701">
        <ele>426.312095</ele>
        <time>2022-08-09T13:40:49.687Z</time>
      </trkpt>
      <trkpt lat="43.03378" lon="0.70735">
        <ele>425.563567</ele>
        <time>2022-08-09T13:40:52.725Z</time>
      </trkpt>
      <trkpt lat="43.03363" lon="0.70809">
        <ele>424.037063</ele>
        <time>2022-08-09T13:40:59.749Z</time>
      </trkpt>
      <trkpt lat="43.03359" lon="0.70865">
        <ele>423.978827</ele>
        <time>2022-08-09T13:41:06.518Z</time>
      </trkpt>
      <trkpt lat="43.03368" lon="0.71053">
        <ele>424.418662</ele>
        <time>2022-08-09T13:41:30.336Z</time>
      </trkpt>
      <trkpt lat="43.03371" lon="0.71115">
        <ele>424.249202</ele>
        <time>2022-08-09T13:41:37.023Z</time>
      </trkpt>
      <trkpt lat="43.03384" lon="0.712">
        <ele>423.937401</ele>
        <time>2022-08-09T13:41:45.671Z</time>
      </trkpt>
      <trkpt lat="43.03377" lon="0.71327">
        <ele>423.395906</ele>
        <time>2022-08-09T13:41:57.198Z</time>
      </trkpt>
      <trkpt lat="43.03382" lon="0.71439">
        <ele>422.544757</ele>
        <time>2022-08-09T13:42:06.813Z</time>
      </trkpt>
      <trkpt lat="43.03391" lon="0.71463">
        <ele>422.338163</ele>
        <time>2022-08-09T13:42:09.205Z</time>
      </trkpt>
      <trkpt lat="43.03411" lon="0.71483">
        <ele>422.079232</ele>
        <time>2022-08-09T13:42:12.066Z</time>
      </trkpt>
      <trkpt lat="43.03397" lon="0.71623">
        <ele>422.786746</ele>
        <time>2022-08-09T13:42:25.556Z</time>
      </trkpt>
      <trkpt lat="43.0341" lon="0.71676">
        <ele>423.478927</ele>
        <time>2022-08-09T13:42:34.298Z</time>
      </trkpt>
      <trkpt lat="43.03426" lon="0.71717">
        <ele>424.049913</ele>
        <time>2022-08-09T13:42:43.377Z</time>
      </trkpt>
      <trkpt lat="43.03431" lon="0.71744">
        <ele>424.400334</ele>
        <time>2022-08-09T13:42:49.500Z</time>
      </trkpt>
      <trkpt lat="43.03433" lon="0.71793">
        <ele>425.346089</ele>
        <time>2022-08-09T13:43:01.397Z</time>
      </trkpt>
      <trkpt lat="43.03421" lon="0.71895">
        <ele>428.147668</ele>
        <time>2022-08-09T13:43:25.977Z</time>
      </trkpt>
      <trkpt lat="43.03424" lon="0.71996">
        <ele>430.928979</ele>
        <time>2022-08-09T13:43:49.167Z</time>
      </trkpt>
      <trkpt lat="43.03441" lon="0.72094">
        <ele>431.480692</ele>
        <time>2022-08-09T13:44:04.491Z</time>
      </trkpt>
      <trkpt lat="43.0347" lon="0.72166">
        <ele>431.516514</ele>
        <time>2022-08-09T13:44:12.182Z</time>
      </trkpt>
      <trkpt lat="43.0347" lon="0.72312">
        <ele>431.024059</ele>
        <time>2022-08-09T13:44:24.517Z</time>
      </trkpt>
      <trkpt lat="43.03506" lon="0.7253">
        <ele>429.137195</ele>
        <time>2022-08-09T13:44:44.471Z</time>
      </trkpt>
      <trkpt lat="43.03534" lon="0.72638">
        <ele>428.137391</ele>
        <time>2022-08-09T13:44:54.529Z</time>
      </trkpt>
      <trkpt lat="43.03573" lon="0.72762">
        <ele>427.337609</ele>
        <time>2022-08-09T13:45:05.973Z</time>
      </trkpt>
      <trkpt lat="43.03584" lon="0.7278">
        <ele>427.331711</ele>
        <time>2022-08-09T13:45:08.072Z</time>
      </trkpt>
      <trkpt lat="43.03687" lon="0.72884">
        <ele>427.288192</ele>
        <time>2022-08-09T13:45:28.275Z</time>
      </trkpt>
      <trkpt lat="43.03705" lon="0.72911">
        <ele>427.672107</ele>
        <time>2022-08-09T13:45:33.671Z</time>
      </trkpt>
      <trkpt lat="43.03715" lon="0.72937">
        <ele>428.017282</ele>
        <time>2022-08-09T13:45:38.430Z</time>
      </trkpt>
      <trkpt lat="43.03723" lon="0.7303">
        <ele>429.105079</ele>
        <time>2022-08-09T13:45:53.913Z</time>
      </trkpt>
      <trkpt lat="43.03744" lon="0.73135">
        <ele>430.272584</ele>
        <time>2022-08-09T13:46:11.148Z</time>
      </trkpt>
      <trkpt lat="43.03754" lon="0.73169">
        <ele>430.530851</ele>
        <time>2022-08-09T13:46:17.021Z</time>
      </trkpt>
      <trkpt lat="43.03789" lon="0.73215">
        <ele>431.004201</ele>
        <time>2022-08-09T13:46:27.219Z</time>
      </trkpt>
      <trkpt lat="43.038" lon="0.7327">
        <ele>431.406576</ele>
        <time>2022-08-09T13:46:35.806Z</time>
      </trkpt>
      <trkpt lat="43.03722" lon="0.73379">
        <ele>430.646902</ele>
        <time>2022-08-09T13:46:50.594Z</time>
      </trkpt>
      <trkpt lat="43.03707" lon="0.73408">
        <ele>430.1365</ele>
        <time>2022-08-09T13:46:53.715Z</time>
      </trkpt>
      <trkpt lat="43.03691" lon="0.73453">
        <ele>429.42233</ele>
        <time>2022-08-09T13:46:57.687Z</time>
      </trkpt>
      <trkpt lat="43.03619" lon="0.73587">
        <ele>425.686833</ele>
        <time>2022-08-09T13:47:09.517Z</time>
      </trkpt>
      <trkpt lat="43.03598" lon="0.73609">
        <ele>424.628456</ele>
        <time>2022-08-09T13:47:11.976Z</time>
      </trkpt>
      <trkpt lat="43.03514" lon="0.73672">
        <ele>420.92336</ele>
        <time>2022-08-09T13:47:21.388Z</time>
      </trkpt>
      <trkpt lat="43.03405" lon="0.73685">
        <ele>418.198102</ele>
        <time>2022-08-09T13:47:32.768Z</time>
      </trkpt>
      <trkpt lat="43.03354" lon="0.73716">
        <ele>416.797565</ele>
        <time>2022-08-09T13:47:39.278Z</time>
      </trkpt>
      <trkpt lat="43.03346" lon="0.73723">
        <ele>416.595495</ele>
        <time>2022-08-09T13:47:40.343Z</time>
      </trkpt>
      <trkpt lat="43.03222" lon="0.73759">
        <ele>414.893008</ele>
        <time>2022-08-09T13:47:54.522Z</time>
      </trkpt>
      <trkpt lat="43.03171" lon="0.73783">
        <ele>414.258751</ele>
        <time>2022-08-09T13:48:01.019Z</time>
      </trkpt>
      <trkpt lat="43.02977" lon="0.73836">
        <ele>415.757908</ele>
        <time>2022-08-09T13:48:37.236Z</time>
      </trkpt>
      <trkpt lat="43.02901" lon="0.73867">
        <ele>416.895011</ele>
        <time>2022-08-09T13:48:55.479Z</time>
      </trkpt>
      <trkpt lat="43.02892" lon="0.73874">
        <ele>417.046545</ele>
        <time>2022-08-09T13:48:58.169Z</time>
      </trkpt>
      <trkpt lat="43.02839" lon="0.73947">
        <ele>417.977915</ele>
        <time>2022-08-09T13:49:13.282Z</time>
      </trkpt>
      <trkpt lat="43.02751" lon="0.74045">
        <ele>417.46038</ele>
        <time>2022-08-09T13:49:29.842Z</time>
      </trkpt>
      <trkpt lat="43.02724" lon="0.74067">
        <ele>417.319116</ele>
        <time>2022-08-09T13:49:33.501Z</time>
      </trkpt>
      <trkpt lat="43.0254" lon="0.74166">
        <ele>413.592387</ele>
        <time>2022-08-09T13:49:55.089Z</time>
      </trkpt>
      <trkpt lat="43.02482" lon="0.74166">
        <ele>412.481173</ele>
        <time>2022-08-09T13:50:01.214Z</time>
      </trkpt>
      <trkpt lat="43.02413" lon="0.74202">
        <ele>411.090354</ele>
        <time>2022-08-09T13:50:09.214Z</time>
      </trkpt>
      <trkpt lat="43.02363" lon="0.74215">
        <ele>410.138199</ele>
        <time>2022-08-09T13:50:15.019Z</time>
      </trkpt>
      <trkpt lat="43.02349" lon="0.74225">
        <ele>410.108355</ele>
        <time>2022-08-09T13:50:16.888Z</time>
      </trkpt>
      <trkpt lat="43.02313" lon="0.7427">
        <ele>410.51921</ele>
        <time>2022-08-09T13:50:23.817Z</time>
      </trkpt>
      <trkpt lat="43.02264" lon="0.74315">
        <ele>411.021245</ele>
        <time>2022-08-09T13:50:34.787Z</time>
      </trkpt>
      <trkpt lat="43.02164" lon="0.74497">
        <ele>413.91856</ele>
        <time>2022-08-09T13:51:14.801Z</time>
      </trkpt>
      <trkpt lat="43.02056" lon="0.74579">
        <ele>416.536976</ele>
        <time>2022-08-09T13:51:44.525Z</time>
      </trkpt>
      <trkpt lat="43.02029" lon="0.74616">
        <ele>417.256935</ele>
        <time>2022-08-09T13:51:52.782Z</time>
      </trkpt>
      <trkpt lat="43.01849" lon="0.74864">
        <ele>421.666963</ele>
        <time>2022-08-09T13:52:48.110Z</time>
      </trkpt>
      <trkpt lat="43.01791" lon="0.74963">
        <ele>422.472461</ele>
        <time>2022-08-09T13:53:06.731Z</time>
      </trkpt>
      <trkpt lat="43.01729" lon="0.75117">
        <ele>423.021734</ele>
        <time>2022-08-09T13:53:27.170Z</time>
      </trkpt>
      <trkpt lat="43.01722" lon="0.75136">
        <ele>422.910986</ele>
        <time>2022-08-09T13:53:29.261Z</time>
      </trkpt>
      <trkpt lat="43.01586" lon="0.75294">
        <ele>421.976421</ele>
        <time>2022-08-09T13:53:51.123Z</time>
      </trkpt>
      <trkpt lat="43.01575" lon="0.75346">
        <ele>422.039859</ele>
        <time>2022-08-09T13:53:56.302Z</time>
      </trkpt>
      <trkpt lat="43.01551" lon="0.75401">
        <ele>422.113781</ele>
        <time>2022-08-09T13:54:03.537Z</time>
      </trkpt>
      <trkpt lat="43.01551" lon="0.75426">
        <ele>422.143314</ele>
        <time>2022-08-09T13:54:06.992Z</time>
      </trkpt>
      <trkpt lat="43.01554" lon="0.75446">
        <ele>422.167232</ele>
        <time>2022-08-09T13:54:09.672Z</time>
      </trkpt>
      <trkpt lat="43.0155" lon="0.75473">
        <ele>422.199395</ele>
        <time>2022-08-09T13:54:13.841Z</time>
      </trkpt>
      <trkpt lat="43.01553" lon="0.75512">
        <ele>422.823096</ele>
        <time>2022-08-09T13:54:19.779Z</time>
      </trkpt>
      <trkpt lat="43.01551" lon="0.75556">
        <ele>423.59746</ele>
        <time>2022-08-09T13:54:27.365Z</time>
      </trkpt>
      <trkpt lat="43.01544" lon="0.75619">
        <ele>424.696199</ele>
        <time>2022-08-09T13:54:39.261Z</time>
      </trkpt>
      <trkpt lat="43.0152" lon="0.75712">
        <ele>426.41577</ele>
        <time>2022-08-09T13:54:58.219Z</time>
      </trkpt>
      <trkpt lat="43.01509" lon="0.75809">
        <ele>428.336899</ele>
        <time>2022-08-09T13:55:17.238Z</time>
      </trkpt>
      <trkpt lat="43.0142" lon="0.76026">
        <ele>432.985429</ele>
        <time>2022-08-09T13:56:02.828Z</time>
      </trkpt>
      <trkpt lat="43.01383" lon="0.76123">
        <ele>434.896795</ele>
        <time>2022-08-09T13:56:22.579Z</time>
      </trkpt>
      <trkpt lat="43.01376" lon="0.76195">
        <ele>435.795662</ele>
        <time>2022-08-09T13:56:34.756Z</time>
      </trkpt>
      <trkpt lat="43.01381" lon="0.76268">
        <ele>436.277532</ele>
        <time>2022-08-09T13:56:46.129Z</time>
      </trkpt>
      <trkpt lat="43.01429" lon="0.76766">
        <ele>437.688364</ele>
        <time>2022-08-09T13:57:43.074Z</time>
      </trkpt>
      <trkpt lat="43.01486" lon="0.77002">
        <ele>438.469801</ele>
        <time>2022-08-09T13:58:11.333Z</time>
      </trkpt>
      <trkpt lat="43.0151" lon="0.7719">
        <ele>440.435014</ele>
        <time>2022-08-09T13:58:38.449Z</time>
      </trkpt>
      <trkpt lat="43.01516" lon="0.7725">
        <ele>441.664402</ele>
        <time>2022-08-09T13:58:49.235Z</time>
      </trkpt>
      <trkpt lat="43.01518" lon="0.77326">
        <ele>443.221517</ele>
        <time>2022-08-09T13:59:04.887Z</time>
      </trkpt>
      <trkpt lat="43.01548" lon="0.77596">
        <ele>451.850357</ele>
        <time>2022-08-09T14:00:11.609Z</time>
      </trkpt>
      <trkpt lat="43.01588" lon="0.7774">
        <ele>457.13121</ele>
        <time>2022-08-09T14:00:49.945Z</time>
      </trkpt>
      <trkpt lat="43.01628" lon="0.77837">
        <ele>460.955895</ele>
        <time>2022-08-09T14:01:17.606Z</time>
      </trkpt>
      <trkpt lat="43.0164" lon="0.77879">
        <ele>462.208993</ele>
        <time>2022-08-09T14:01:27.776Z</time>
      </trkpt>
      <trkpt lat="43.01651" lon="0.77896">
        <ele>462.862651</ele>
        <time>2022-08-09T14:01:33.780Z</time>
      </trkpt>
      <trkpt lat="43.01689" lon="0.78038">
        <ele>467.111984</ele>
        <time>2022-08-09T14:02:06.341Z</time>
      </trkpt>
      <trkpt lat="43.01717" lon="0.78122">
        <ele>469.470652</ele>
        <time>2022-08-09T14:02:24.622Z</time>
      </trkpt>
      <trkpt lat="43.01728" lon="0.78291">
        <ele>473.665021</ele>
        <time>2022-08-09T14:03:00.224Z</time>
      </trkpt>
      <trkpt lat="43.01805" lon="0.78449">
        <ele>477.300341</ele>
        <time>2022-08-09T14:03:39.266Z</time>
      </trkpt>
      <trkpt lat="43.01866" lon="0.78578">
        <ele>478.110172</ele>
        <time>2022-08-09T14:03:59.835Z</time>
      </trkpt>
      <trkpt lat="43.01892" lon="0.7864">
        <ele>477.78309</ele>
        <time>2022-08-09T14:04:06.104Z</time>
      </trkpt>
      <trkpt lat="43.01899" lon="0.78677">
        <ele>477.603713</ele>
        <time>2022-08-09T14:04:09.271Z</time>
      </trkpt>
      <trkpt lat="43.01918" lon="0.78816">
        <ele>474.895481</ele>
        <time>2022-08-09T14:04:20.501Z</time>
      </trkpt>
      <trkpt lat="43.01919" lon="0.78946">
        <ele>471.430153</ele>
        <time>2022-08-09T14:04:29.679Z</time>
      </trkpt>
      <trkpt lat="43.01944" lon="0.79032">
        <ele>468.112639</ele>
        <time>2022-08-09T14:04:35.981Z</time>
      </trkpt>
      <trkpt lat="43.01946" lon="0.79056">
        <ele>467.199584</ele>
        <time>2022-08-09T14:04:37.596Z</time>
      </trkpt>
      <trkpt lat="43.01941" lon="0.79099">
        <ele>465.486537</ele>
        <time>2022-08-09T14:04:40.557Z</time>
      </trkpt>
      <trkpt lat="43.01935" lon="0.7913">
        <ele>464.238996</ele>
        <time>2022-08-09T14:04:42.736Z</time>
      </trkpt>
      <trkpt lat="43.01849" lon="0.79385">
        <ele>454.194059</ele>
        <time>2022-08-09T14:05:02.119Z</time>
      </trkpt>
      <trkpt lat="43.01847" lon="0.79414">
        <ele>453.182007</ele>
        <time>2022-08-09T14:05:04.230Z</time>
      </trkpt>
      <trkpt lat="43.01856" lon="0.79445">
        <ele>451.972748</ele>
        <time>2022-08-09T14:05:06.591Z</time>
      </trkpt>
      <trkpt lat="43.01891" lon="0.79536">
        <ele>448.054351</ele>
        <time>2022-08-09T14:05:13.784Z</time>
      </trkpt>
      <trkpt lat="43.01885" lon="0.79558">
        <ele>447.158055</ele>
        <time>2022-08-09T14:05:15.359Z</time>
      </trkpt>
      <trkpt lat="43.0186" lon="0.79612">
        <ele>444.724032</ele>
        <time>2022-08-09T14:05:19.641Z</time>
      </trkpt>
      <trkpt lat="43.01827" lon="0.79645">
        <ele>442.852117</ele>
        <time>2022-08-09T14:05:23.385Z</time>
      </trkpt>
      <trkpt lat="43.0177" lon="0.79685">
        <ele>440.515479</ele>
        <time>2022-08-09T14:05:29.451Z</time>
      </trkpt>
      <trkpt lat="43.0172" lon="0.79714">
        <ele>438.550246</ele>
        <time>2022-08-09T14:05:34.748Z</time>
      </trkpt>
      <trkpt lat="43.0172" lon="0.79719">
        <ele>438.414423</ele>
        <time>2022-08-09T14:05:35.117Z</time>
      </trkpt>
      <trkpt lat="43.01717" lon="0.79741">
        <ele>437.825209</ele>
        <time>2022-08-09T14:05:36.761Z</time>
      </trkpt>
      <trkpt lat="43.01717" lon="0.79741">
        <ele>437.825209</ele>
        <time>2022-08-09T14:05:36.806Z</time>
      </trkpt>
      <trkpt lat="43.01717" lon="0.79761">
        <ele>437.280889</ele>
        <time>2022-08-09T14:05:38.404Z</time>
      </trkpt>
      <trkpt lat="43.01744" lon="0.7977">
        <ele>437.448575</ele>
        <time>2022-08-09T14:05:42.011Z</time>
      </trkpt>
      <trkpt lat="43.01767" lon="0.79794">
        <ele>438.464755</ele>
        <time>2022-08-09T14:05:46.907Z</time>
      </trkpt>
      <trkpt lat="43.0181" lon="0.79837">
        <ele>440.346835</ele>
        <time>2022-08-09T14:06:02.289Z</time>
      </trkpt>
      <trkpt lat="43.01822" lon="0.79847">
        <ele>440.846067</ele>
        <time>2022-08-09T14:06:06.611Z</time>
      </trkpt>
      <trkpt lat="43.01812" lon="0.79854">
        <ele>441.222367</ele>
        <time>2022-08-09T14:06:10.679Z</time>
      </trkpt>
      <trkpt lat="43.01796" lon="0.79867">
        <ele>441.913279</ele>
        <time>2022-08-09T14:06:17.829Z</time>
      </trkpt>
      <trkpt lat="43.01771" lon="0.79888">
        <ele>442.922204</ele>
        <time>2022-08-09T14:06:29.867Z</time>
      </trkpt>
      <trkpt lat="43.01754" lon="0.79917">
        <ele>444.779474</ele>
        <time>2022-08-09T14:06:41.552Z</time>
      </trkpt>
      <trkpt lat="43.01699" lon="0.79977">
        <ele>450.669672</ele>
        <time>2022-08-09T14:07:16.418Z</time>
      </trkpt>
      <trkpt lat="43.01684" lon="0.79997">
        <ele>452.471329</ele>
        <time>2022-08-09T14:07:27.912Z</time>
      </trkpt>
      <trkpt lat="43.01668" lon="0.8003">
        <ele>454.867121</ele>
        <time>2022-08-09T14:07:42.893Z</time>
      </trkpt>
      <trkpt lat="43.01633" lon="0.80133">
        <ele>461.170489</ele>
        <time>2022-08-09T14:08:23.106Z</time>
      </trkpt>
      <trkpt lat="43.01602" lon="0.80238">
        <ele>466.758215</ele>
        <time>2022-08-09T14:08:59.499Z</time>
      </trkpt>
      <trkpt lat="43.01577" lon="0.80346">
        <ele>471.354915</ele>
        <time>2022-08-09T14:09:28.059Z</time>
      </trkpt>
      <trkpt lat="43.01571" lon="0.80381">
        <ele>472.201879</ele>
        <time>2022-08-09T14:09:35.687Z</time>
      </trkpt>
      <trkpt lat="43.01574" lon="0.80424">
        <ele>473.195397</ele>
        <time>2022-08-09T14:09:44.267Z</time>
      </trkpt>
      <trkpt lat="43.01593" lon="0.80499">
        <ele>475.054221</ele>
        <time>2022-08-09T14:09:59.737Z</time>
      </trkpt>
      <trkpt lat="43.01628" lon="0.80604">
        <ele>476.710477</ele>
        <time>2022-08-09T14:10:18.370Z</time>
      </trkpt>
      <trkpt lat="43.0163" lon="0.80698">
        <ele>477.424316</ele>
        <time>2022-08-09T14:10:30.773Z</time>
      </trkpt>
      <trkpt lat="43.01615" lon="0.80935">
        <ele>478.997518</ele>
        <time>2022-08-09T14:10:59.934Z</time>
      </trkpt>
      <trkpt lat="43.01615" lon="0.80952">
        <ele>479.098452</ele>
        <time>2022-08-09T14:11:02.074Z</time>
      </trkpt>
      <trkpt lat="43.01622" lon="0.81128">
        <ele>480.841989</ele>
        <time>2022-08-09T14:11:28.764Z</time>
      </trkpt>
      <trkpt lat="43.01604" lon="0.81261">
        <ele>482.607306</ele>
        <time>2022-08-09T14:11:51.681Z</time>
      </trkpt>
      <trkpt lat="43.01602" lon="0.813">
        <ele>483.236701</ele>
        <time>2022-08-09T14:11:57.922Z</time>
      </trkpt>
      <trkpt lat="43.01608" lon="0.81345">
        <ele>484.064923</ele>
        <time>2022-08-09T14:12:05.578Z</time>
      </trkpt>
      <trkpt lat="43.0161" lon="0.8148">
        <ele>486.466477</ele>
        <time>2022-08-09T14:12:29.368Z</time>
      </trkpt>
      <trkpt lat="43.01634" lon="0.81547">
        <ele>488.489446</ele>
        <time>2022-08-09T14:12:43.348Z</time>
      </trkpt>
      <trkpt lat="43.01643" lon="0.81679">
        <ele>493.370867</ele>
        <time>2022-08-09T14:13:16.500Z</time>
      </trkpt>
      <trkpt lat="43.01655" lon="0.81749">
        <ele>496.016411</ele>
        <time>2022-08-09T14:13:38.516Z</time>
      </trkpt>
      <trkpt lat="43.01667" lon="0.81773">
        <ele>497.415924</ele>
        <time>2022-08-09T14:13:48.028Z</time>
      </trkpt>
      <trkpt lat="43.01704" lon="0.81814">
        <ele>500.726781</ele>
        <time>2022-08-09T14:14:07.917Z</time>
      </trkpt>
      <trkpt lat="43.01738" lon="0.81876">
        <ele>504.703628</ele>
        <time>2022-08-09T14:14:31.855Z</time>
      </trkpt>
      <trkpt lat="43.01764" lon="0.81909">
        <ele>507.168707</ele>
        <time>2022-08-09T14:14:47.666Z</time>
      </trkpt>
      <trkpt lat="43.01768" lon="0.81927">
        <ele>508.129917</ele>
        <time>2022-08-09T14:14:53.802Z</time>
      </trkpt>
      <trkpt lat="43.01755" lon="0.82008">
        <ele>512.110464</ele>
        <time>2022-08-09T14:15:20.319Z</time>
      </trkpt>
      <trkpt lat="43.01754" lon="0.82039">
        <ele>513.568636</ele>
        <time>2022-08-09T14:15:29.387Z</time>
      </trkpt>
      <trkpt lat="43.0178" lon="0.82116">
        <ele>517.600351</ele>
        <time>2022-08-09T14:15:54.826Z</time>
      </trkpt>
      <trkpt lat="43.01801" lon="0.82222">
        <ele>522.668538</ele>
        <time>2022-08-09T14:16:25.193Z</time>
      </trkpt>
      <trkpt lat="43.01818" lon="0.82276">
        <ele>525.255227</ele>
        <time>2022-08-09T14:16:41.153Z</time>
      </trkpt>
      <trkpt lat="43.01802" lon="0.82371">
        <ele>529.580121</ele>
        <time>2022-08-09T14:17:08.056Z</time>
      </trkpt>
      <trkpt lat="43.01816" lon="0.82451">
        <ele>533.954506</ele>
        <time>2022-08-09T14:17:32.869Z</time>
      </trkpt>
      <trkpt lat="43.01811" lon="0.82671">
        <ele>547.367311</ele>
        <time>2022-08-09T14:18:53.925Z</time>
      </trkpt>
      <trkpt lat="43.0183" lon="0.8274">
        <ele>551.640693</ele>
        <time>2022-08-09T14:19:22.674Z</time>
      </trkpt>
      <trkpt lat="43.01831" lon="0.82742">
        <ele>551.803864</ele>
        <time>2022-08-09T14:19:23.726Z</time>
      </trkpt>
      <trkpt lat="43.0183" lon="0.82779">
        <ele>553.947397</ele>
        <time>2022-08-09T14:19:37.716Z</time>
      </trkpt>
      <trkpt lat="43.01811" lon="0.82876">
        <ele>559.723691</ele>
        <time>2022-08-09T14:20:09.592Z</time>
      </trkpt>
      <trkpt lat="43.01785" lon="0.82972">
        <ele>562.870259</ele>
        <time>2022-08-09T14:20:35.740Z</time>
      </trkpt>
      <trkpt lat="43.0173" lon="0.83068">
        <ele>566.027644</ele>
        <time>2022-08-09T14:20:59.043Z</time>
      </trkpt>
      <trkpt lat="43.01652" lon="0.83172">
        <ele>568.096713</ele>
        <time>2022-08-09T14:21:21.709Z</time>
      </trkpt>
      <trkpt lat="43.01617" lon="0.83205">
        <ele>568.670694</ele>
        <time>2022-08-09T14:21:29.659Z</time>
      </trkpt>
      <trkpt lat="43.01435" lon="0.83336">
        <ele>571.544656</ele>
        <time>2022-08-09T14:22:09.412Z</time>
      </trkpt>
      <trkpt lat="43.01405" lon="0.83368">
        <ele>572.405199</ele>
        <time>2022-08-09T14:22:17.710Z</time>
      </trkpt>
      <trkpt lat="43.01384" lon="0.83401">
        <ele>574.153762</ele>
        <time>2022-08-09T14:22:26.120Z</time>
      </trkpt>
      <trkpt lat="43.01362" lon="0.83419">
        <ele>575.535859</ele>
        <time>2022-08-09T14:22:33.491Z</time>
      </trkpt>
      <trkpt lat="43.01308" lon="0.83445">
        <ele>578.610096</ele>
        <time>2022-08-09T14:22:52.268Z</time>
      </trkpt>
      <trkpt lat="43.01196" lon="0.83609">
        <ele>594.067325</ele>
        <time>2022-08-09T14:24:18.586Z</time>
      </trkpt>
      <trkpt lat="43.01185" lon="0.83637">
        <ele>596.74081</ele>
        <time>2022-08-09T14:24:35.403Z</time>
      </trkpt>
      <trkpt lat="43.0118" lon="0.83667">
        <ele>599.333941</ele>
        <time>2022-08-09T14:24:53.051Z</time>
      </trkpt>
      <trkpt lat="43.01189" lon="0.83702">
        <ele>602.521738</ele>
        <time>2022-08-09T14:25:14.189Z</time>
      </trkpt>
      <trkpt lat="43.01247" lon="0.83844">
        <ele>617.792663</ele>
        <time>2022-08-09T14:26:38.607Z</time>
      </trkpt>
      <trkpt lat="43.01295" lon="0.83876">
        <ele>624.630553</ele>
        <time>2022-08-09T14:27:10.437Z</time>
      </trkpt>
      <trkpt lat="43.013" lon="0.83885">
        <ele>625.657486</ele>
        <time>2022-08-09T14:27:14.648Z</time>
      </trkpt>
      <trkpt lat="43.01301" lon="0.83893">
        <ele>626.227064</ele>
        <time>2022-08-09T14:27:17.639Z</time>
      </trkpt>
      <trkpt lat="43.01295" lon="0.83902">
        <ele>627.058511</ele>
        <time>2022-08-09T14:27:22.252Z</time>
      </trkpt>
      <trkpt lat="43.01267" lon="0.83894">
        <ele>629.791196</ele>
        <time>2022-08-09T14:27:36.444Z</time>
      </trkpt>
      <trkpt lat="43.01226" lon="0.83917">
        <ele>633.990791</ele>
        <time>2022-08-09T14:27:58.504Z</time>
      </trkpt>
      <trkpt lat="43.01214" lon="0.83937">
        <ele>635.795956</ele>
        <time>2022-08-09T14:28:07.313Z</time>
      </trkpt>
      <trkpt lat="43.01195" lon="0.83988">
        <ele>639.723084</ele>
        <time>2022-08-09T14:28:27.900Z</time>
      </trkpt>
      <trkpt lat="43.01194" lon="0.84031">
        <ele>642.742589</ele>
        <time>2022-08-09T14:28:45.016Z</time>
      </trkpt>
      <trkpt lat="43.01238" lon="0.84077">
        <ele>649.942472</ele>
        <time>2022-08-09T14:29:19.400Z</time>
      </trkpt>
      <trkpt lat="43.01341" lon="0.84206">
        <ele>667.902038</ele>
        <time>2022-08-09T14:30:59.399Z</time>
      </trkpt>
      <trkpt lat="43.01345" lon="0.84225">
        <ele>669.66959</ele>
        <time>2022-08-09T14:31:09.963Z</time>
      </trkpt>
      <trkpt lat="43.01341" lon="0.84335">
        <ele>679.309606</ele>
        <time>2022-08-09T14:32:02.918Z</time>
      </trkpt>
      <trkpt lat="43.01324" lon="0.84402">
        <ele>685.502056</ele>
        <time>2022-08-09T14:32:33.075Z</time>
      </trkpt>
      <trkpt lat="43.01315" lon="0.84508">
        <ele>691.710124</ele>
        <time>2022-08-09T14:33:13.450Z</time>
      </trkpt>
      <trkpt lat="43.01301" lon="0.8461">
        <ele>696.889584</ele>
        <time>2022-08-09T14:33:44.724Z</time>
      </trkpt>
      <trkpt lat="43.01291" lon="0.84647">
        <ele>698.850513</ele>
        <time>2022-08-09T14:33:54.370Z</time>
      </trkpt>
      <trkpt lat="43.01278" lon="0.84664">
        <ele>699.884548</ele>
        <time>2022-08-09T14:33:59.752Z</time>
      </trkpt>
      <trkpt lat="43.01234" lon="0.84689">
        <ele>701.179242</ele>
        <time>2022-08-09T14:34:10.852Z</time>
      </trkpt>
      <trkpt lat="43.01218" lon="0.84705">
        <ele>701.71714</ele>
        <time>2022-08-09T14:34:15.103Z</time>
      </trkpt>
      <trkpt lat="43.01209" lon="0.84734">
        <ele>702.334846</ele>
        <time>2022-08-09T14:34:20.307Z</time>
      </trkpt>
      <trkpt lat="43.01182" lon="0.84884">
        <ele>705.735154</ele>
        <time>2022-08-09T14:34:49.494Z</time>
      </trkpt>
      <trkpt lat="43.0117" lon="0.84902">
        <ele>706.444656</ele>
        <time>2022-08-09T14:34:53.971Z</time>
      </trkpt>
      <trkpt lat="43.01152" lon="0.84913">
        <ele>707.207227</ele>
        <time>2022-08-09T14:34:58.595Z</time>
      </trkpt>
      <trkpt lat="43.01131" lon="0.84914">
        <ele>708.05627</ele>
        <time>2022-08-09T14:35:04.750Z</time>
      </trkpt>
      <trkpt lat="43.01094" lon="0.84891">
        <ele>709.636406</ele>
        <time>2022-08-09T14:35:15.731Z</time>
      </trkpt>
      <trkpt lat="43.01074" lon="0.84891">
        <ele>710.425888</ele>
        <time>2022-08-09T14:35:22.731Z</time>
      </trkpt>
      <trkpt lat="43.01048" lon="0.84906">
        <ele>711.569328</ele>
        <time>2022-08-09T14:35:33.976Z</time>
      </trkpt>
      <trkpt lat="43.0103" lon="0.84932">
        <ele>713.01569</ele>
        <time>2022-08-09T14:35:44.974Z</time>
      </trkpt>
      <trkpt lat="43.01013" lon="0.85024">
        <ele>717.225559</ele>
        <time>2022-08-09T14:36:14.760Z</time>
      </trkpt>
      <trkpt lat="43.00984" lon="0.85092">
        <ele>720.71895</ele>
        <time>2022-08-09T14:36:37.437Z</time>
      </trkpt>
      <trkpt lat="43.00956" lon="0.85125">
        <ele>722.77908</ele>
        <time>2022-08-09T14:36:50.504Z</time>
      </trkpt>
      <trkpt lat="43.00903" lon="0.85146">
        <ele>724.243609</ele>
        <time>2022-08-09T14:37:08.433Z</time>
      </trkpt>
      <trkpt lat="43.009" lon="0.85166">
        <ele>724.641764</ele>
        <time>2022-08-09T14:37:13.444Z</time>
      </trkpt>
      <trkpt lat="43.00906" lon="0.85189">
        <ele>725.125114</ele>
        <time>2022-08-09T14:37:18.858Z</time>
      </trkpt>
      <trkpt lat="43.00906" lon="0.85213">
        <ele>725.60062</ele>
        <time>2022-08-09T14:37:23.646Z</time>
      </trkpt>
      <trkpt lat="43.00897" lon="0.85247">
        <ele>726.286842</ele>
        <time>2022-08-09T14:37:29.255Z</time>
      </trkpt>
      <trkpt lat="43.00909" lon="0.85265">
        <ele>726.747569</ele>
        <time>2022-08-09T14:37:31.870Z</time>
      </trkpt>
      <trkpt lat="43.00963" lon="0.85243">
        <ele>727.007101</ele>
        <time>2022-08-09T14:37:38.841Z</time>
      </trkpt>
      <trkpt lat="43.00996" lon="0.85246">
        <ele>726.597938</ele>
        <time>2022-08-09T14:37:42.451Z</time>
      </trkpt>
      <trkpt lat="43.01057" lon="0.85277">
        <ele>725.785584</ele>
        <time>2022-08-09T14:37:49.729Z</time>
      </trkpt>
      <trkpt lat="43.01088" lon="0.85286">
        <ele>725.382169</ele>
        <time>2022-08-09T14:37:53.466Z</time>
      </trkpt>
      <trkpt lat="43.01104" lon="0.85297">
        <ele>725.163099</ele>
        <time>2022-08-09T14:37:55.586Z</time>
      </trkpt>
      <trkpt lat="43.01144" lon="0.8535">
        <ele>725.444076</ele>
        <time>2022-08-09T14:38:02.633Z</time>
      </trkpt>
      <trkpt lat="43.01177" lon="0.85385">
        <ele>725.664384</ele>
        <time>2022-08-09T14:38:08.163Z</time>
      </trkpt>
      <trkpt lat="43.0121" lon="0.85407">
        <ele>725.856686</ele>
        <time>2022-08-09T14:38:13.967Z</time>
      </trkpt>
      <trkpt lat="43.01314" lon="0.85435">
        <ele>728.624764</ele>
        <time>2022-08-09T14:38:43.417Z</time>
      </trkpt>
      <trkpt lat="43.01337" lon="0.85445">
        <ele>729.634476</ele>
        <time>2022-08-09T14:38:51.012Z</time>
      </trkpt>
      <trkpt lat="43.01365" lon="0.85468">
        <ele>730.980276</ele>
        <time>2022-08-09T14:39:02.289Z</time>
      </trkpt>
      <trkpt lat="43.01379" lon="0.85501">
        <ele>732.154444</ele>
        <time>2022-08-09T14:39:13.653Z</time>
      </trkpt>
      <trkpt lat="43.01381" lon="0.85587">
        <ele>733.733256</ele>
        <time>2022-08-09T14:39:34.807Z</time>
      </trkpt>
      <trkpt lat="43.01387" lon="0.85613">
        <ele>733.817293</ele>
        <time>2022-08-09T14:39:40.324Z</time>
      </trkpt>
      <trkpt lat="43.01399" lon="0.85654">
        <ele>733.949892</ele>
        <time>2022-08-09T14:39:48.521Z</time>
      </trkpt>
      <trkpt lat="43.01417" lon="0.85689">
        <ele>734.077928</ele>
        <time>2022-08-09T14:39:54.434Z</time>
      </trkpt>
      <trkpt lat="43.01443" lon="0.85718">
        <ele>734.216377</ele>
        <time>2022-08-09T14:39:57.978Z</time>
      </trkpt>
      <trkpt lat="43.01466" lon="0.85733">
        <ele>734.323048</ele>
        <time>2022-08-09T14:40:00.533Z</time>
      </trkpt>
      <trkpt lat="43.01549" lon="0.8575">
        <ele>729.559275</ele>
        <time>2022-08-09T14:40:08.457Z</time>
      </trkpt>
      <trkpt lat="43.01568" lon="0.85759">
        <ele>728.269888</ele>
        <time>2022-08-09T14:40:10.247Z</time>
      </trkpt>
      <trkpt lat="43.01588" lon="0.85782">
        <ele>726.650079</ele>
        <time>2022-08-09T14:40:12.480Z</time>
      </trkpt>
      <trkpt lat="43.016" lon="0.85807">
        <ele>725.237785</ele>
        <time>2022-08-09T14:40:14.432Z</time>
      </trkpt>
      <trkpt lat="43.01614" lon="0.85892">
        <ele>720.962989</ele>
        <time>2022-08-09T14:40:20.108Z</time>
      </trkpt>
      <trkpt lat="43.0161" lon="0.85949">
        <ele>717.99867</ele>
        <time>2022-08-09T14:40:23.809Z</time>
      </trkpt>
      <trkpt lat="43.01583" lon="0.86005">
        <ele>714.474633</ele>
        <time>2022-08-09T14:40:28.235Z</time>
      </trkpt>
      <trkpt lat="43.01466" lon="0.86171">
        <ele>702.878842</ele>
        <time>2022-08-09T14:40:43.420Z</time>
      </trkpt>
      <trkpt lat="43.01432" lon="0.86189">
        <ele>700.413015</ele>
        <time>2022-08-09T14:40:46.764Z</time>
      </trkpt>
      <trkpt lat="43.01365" lon="0.86195">
        <ele>695.220312</ele>
        <time>2022-08-09T14:40:52.834Z</time>
      </trkpt>
      <trkpt lat="43.0134" lon="0.86207">
        <ele>692.746369</ele>
        <time>2022-08-09T14:40:55.273Z</time>
      </trkpt>
      <trkpt lat="43.01317" lon="0.86229">
        <ele>690.264378</ele>
        <time>2022-08-09T14:40:57.691Z</time>
      </trkpt>
      <trkpt lat="43.01293" lon="0.86272">
        <ele>686.612106</ele>
        <time>2022-08-09T14:41:01.182Z</time>
      </trkpt>
      <trkpt lat="43.01283" lon="0.86304">
        <ele>684.302648</ele>
        <time>2022-08-09T14:41:03.335Z</time>
      </trkpt>
      <trkpt lat="43.01262" lon="0.86334">
        <ele>681.514647</ele>
        <time>2022-08-09T14:41:05.906Z</time>
      </trkpt>
      <trkpt lat="43.0123" lon="0.86342">
        <ele>677.561492</ele>
        <time>2022-08-09T14:41:08.646Z</time>
      </trkpt>
      <trkpt lat="43.01165" lon="0.86332">
        <ele>669.649339</ele>
        <time>2022-08-09T14:41:14.156Z</time>
      </trkpt>
      <trkpt lat="43.01125" lon="0.86335">
        <ele>664.780252</ele>
        <time>2022-08-09T14:41:17.526Z</time>
      </trkpt>
      <trkpt lat="43.01101" lon="0.8637">
        <ele>660.500047</ele>
        <time>2022-08-09T14:41:20.507Z</time>
      </trkpt>
      <trkpt lat="43.01086" lon="0.8643">
        <ele>656.757937</ele>
        <time>2022-08-09T14:41:24.446Z</time>
      </trkpt>
      <trkpt lat="43.01086" lon="0.86454">
        <ele>655.419926</ele>
        <time>2022-08-09T14:41:26.033Z</time>
      </trkpt>
      <trkpt lat="43.01095" lon="0.86499">
        <ele>652.883188</ele>
        <time>2022-08-09T14:41:29.124Z</time>
      </trkpt>
      <trkpt lat="43.01107" lon="0.86517">
        <ele>651.575775</ele>
        <time>2022-08-09T14:41:30.703Z</time>
      </trkpt>
      <trkpt lat="43.01125" lon="0.8653">
        <ele>650.051386</ele>
        <time>2022-08-09T14:41:32.713Z</time>
      </trkpt>
      <trkpt lat="43.01144" lon="0.86534">
        <ele>648.603858</ele>
        <time>2022-08-09T14:41:34.519Z</time>
      </trkpt>
      <trkpt lat="43.01177" lon="0.86511">
        <ele>645.694043</ele>
        <time>2022-08-09T14:41:38.072Z</time>
      </trkpt>
      <trkpt lat="43.01196" lon="0.86462">
        <ele>641.792677</ele>
        <time>2022-08-09T14:41:41.700Z</time>
      </trkpt>
      <trkpt lat="43.01212" lon="0.86456">
        <ele>640.2068</ele>
        <time>2022-08-09T14:41:43.181Z</time>
      </trkpt>
      <trkpt lat="43.0123" lon="0.86474">
        <ele>638.104494</ele>
        <time>2022-08-09T14:41:45.055Z</time>
      </trkpt>
      <trkpt lat="43.01259" lon="0.86549">
        <ele>632.056014</ele>
        <time>2022-08-09T14:41:50.439Z</time>
      </trkpt>
      <trkpt lat="43.01272" lon="0.86567">
        <ele>630.339025</ele>
        <time>2022-08-09T14:41:51.950Z</time>
      </trkpt>
      <trkpt lat="43.01361" lon="0.86642">
        <ele>616.110115</ele>
        <time>2022-08-09T14:42:00.677Z</time>
      </trkpt>
      <trkpt lat="43.0137" lon="0.86664">
        <ele>613.550972</ele>
        <time>2022-08-09T14:42:02.173Z</time>
      </trkpt>
      <trkpt lat="43.01373" lon="0.86687">
        <ele>611.123696</ele>
        <time>2022-08-09T14:42:03.595Z</time>
      </trkpt>
      <trkpt lat="43.01361" lon="0.86816">
        <ele>599.014932</ele>
        <time>2022-08-09T14:42:11.556Z</time>
      </trkpt>
      <trkpt lat="43.01339" lon="0.87259">
        <ele>567.015954</ele>
        <time>2022-08-09T14:42:39.627Z</time>
      </trkpt>
      <trkpt lat="43.01324" lon="0.87383">
        <ele>560.348045</ele>
        <time>2022-08-09T14:42:47.867Z</time>
      </trkpt>
      <trkpt lat="43.01272" lon="0.87634">
        <ele>546.710177</ele>
        <time>2022-08-09T14:43:05.084Z</time>
      </trkpt>
      <trkpt lat="43.01148" lon="0.87979">
        <ele>525.332327</ele>
        <time>2022-08-09T14:43:30.086Z</time>
      </trkpt>
      <trkpt lat="43.01117" lon="0.8806">
        <ele>519.750521</ele>
        <time>2022-08-09T14:43:35.917Z</time>
      </trkpt>
      <trkpt lat="43.01059" lon="0.88255">
        <ele>508.182061</ele>
        <time>2022-08-09T14:43:49.472Z</time>
      </trkpt>
      <trkpt lat="43.01007" lon="0.88454">
        <ele>498.627094</ele>
        <time>2022-08-09T14:44:03.780Z</time>
      </trkpt>
      <trkpt lat="43.01004" lon="0.885">
        <ele>496.828234</ele>
        <time>2022-08-09T14:44:07.166Z</time>
      </trkpt>
      <trkpt lat="43.01017" lon="0.88556">
        <ele>494.541498</ele>
        <time>2022-08-09T14:44:11.237Z</time>
      </trkpt>
      <trkpt lat="43.01011" lon="0.88592">
        <ele>493.110404</ele>
        <time>2022-08-09T14:44:13.778Z</time>
      </trkpt>
      <trkpt lat="43.00998" lon="0.88609">
        <ele>492.15181</ele>
        <time>2022-08-09T14:44:15.430Z</time>
      </trkpt>
      <trkpt lat="43.00952" lon="0.88645">
        <ele>488.058754</ele>
        <time>2022-08-09T14:44:20.300Z</time>
      </trkpt>
      <trkpt lat="43.00936" lon="0.88668">
        <ele>486.097235</ele>
        <time>2022-08-09T14:44:22.328Z</time>
      </trkpt>
      <trkpt lat="43.00938" lon="0.88695">
        <ele>484.428038</ele>
        <time>2022-08-09T14:44:24.037Z</time>
      </trkpt>
      <trkpt lat="43.00959" lon="0.8875">
        <ele>480.593086</ele>
        <time>2022-08-09T14:44:27.974Z</time>
      </trkpt>
      <trkpt lat="43.00963" lon="0.88798">
        <ele>477.643042</ele>
        <time>2022-08-09T14:44:31.044Z</time>
      </trkpt>
      <trkpt lat="43.00958" lon="0.88813">
        <ele>476.637561</ele>
        <time>2022-08-09T14:44:32.112Z</time>
      </trkpt>
      <trkpt lat="43.00914" lon="0.88842">
        <ele>473.173226</ele>
        <time>2022-08-09T14:44:36.335Z</time>
      </trkpt>
      <trkpt lat="43.00909" lon="0.88865">
        <ele>471.913767</ele>
        <time>2022-08-09T14:44:37.919Z</time>
      </trkpt>
      <trkpt lat="43.00916" lon="0.88884">
        <ele>470.808267</ele>
        <time>2022-08-09T14:44:39.305Z</time>
      </trkpt>
      <trkpt lat="43.00935" lon="0.8889">
        <ele>469.410399</ele>
        <time>2022-08-09T14:44:41.072Z</time>
      </trkpt>
      <trkpt lat="43.00972" lon="0.88886">
        <ele>466.816522</ele>
        <time>2022-08-09T14:44:44.352Z</time>
      </trkpt>
      <trkpt lat="43.00984" lon="0.88894">
        <ele>465.837294</ele>
        <time>2022-08-09T14:44:45.612Z</time>
      </trkpt>
      <trkpt lat="43.01002" lon="0.88917">
        <ele>464.102581</ele>
        <time>2022-08-09T14:44:47.791Z</time>
      </trkpt>
      <trkpt lat="43.01006" lon="0.88922">
        <ele>463.675845</ele>
        <time>2022-08-09T14:44:48.345Z</time>
      </trkpt>
      <trkpt lat="43.01081" lon="0.89014">
        <ele>457.678519</ele>
        <time>2022-08-09T14:44:57.857Z</time>
      </trkpt>
      <trkpt lat="43.01088" lon="0.89037">
        <ele>456.604875</ele>
        <time>2022-08-09T14:44:59.535Z</time>
      </trkpt>
      <trkpt lat="43.01087" lon="0.89054">
        <ele>455.864035</ele>
        <time>2022-08-09T14:45:00.660Z</time>
      </trkpt>
      <trkpt lat="43.01038" lon="0.89163">
        <ele>449.739669</ele>
        <time>2022-08-09T14:45:09.097Z</time>
      </trkpt>
      <trkpt lat="43.01025" lon="0.89177">
        <ele>448.543435</ele>
        <time>2022-08-09T14:45:10.553Z</time>
      </trkpt>
      <trkpt lat="43.00953" lon="0.89223">
        <ele>442.760975</ele>
        <time>2022-08-09T14:45:17.600Z</time>
      </trkpt>
      <trkpt lat="43.00881" lon="0.89352">
        <ele>434.405614</ele>
        <time>2022-08-09T14:45:28.231Z</time>
      </trkpt>
      <trkpt lat="43.0081" lon="0.8942">
        <ele>428.381645</ele>
        <time>2022-08-09T14:45:36.033Z</time>
      </trkpt>
      <trkpt lat="43.00781" lon="0.89465">
        <ele>425.671468</ele>
        <time>2022-08-09T14:45:40.014Z</time>
      </trkpt>
      <trkpt lat="43.00754" lon="0.8952">
        <ele>422.869439</ele>
        <time>2022-08-09T14:45:44.457Z</time>
      </trkpt>
      <trkpt lat="43.0074" lon="0.89571">
        <ele>420.557507</ele>
        <time>2022-08-09T14:45:48.133Z</time>
      </trkpt>
      <trkpt lat="43.00722" lon="0.89718">
        <ele>414.908036</ele>
        <time>2022-08-09T14:45:58.352Z</time>
      </trkpt>
      <trkpt lat="43.00701" lon="0.8978">
        <ele>412.687565</ele>
        <time>2022-08-09T14:46:03.214Z</time>
      </trkpt>
      <trkpt lat="43.00686" lon="0.8986">
        <ele>409.998319</ele>
        <time>2022-08-09T14:46:09.051Z</time>
      </trkpt>
      <trkpt lat="43.00666" lon="0.89918">
        <ele>407.919508</ele>
        <time>2022-08-09T14:46:13.559Z</time>
      </trkpt>
      <trkpt lat="43.00665" lon="0.8999">
        <ele>405.633068</ele>
        <time>2022-08-09T14:46:18.764Z</time>
      </trkpt>
      <trkpt lat="43.00662" lon="0.90023">
        <ele>404.559961</ele>
        <time>2022-08-09T14:46:21.147Z</time>
      </trkpt>
      <trkpt lat="43.00652" lon="0.90054">
        <ele>403.475698</ele>
        <time>2022-08-09T14:46:23.471Z</time>
      </trkpt>
      <trkpt lat="43.00622" lon="0.90081">
        <ele>401.916123</ele>
        <time>2022-08-09T14:46:26.807Z</time>
      </trkpt>
      <trkpt lat="43.00608" lon="0.90109">
        <ele>400.900033</ele>
        <time>2022-08-09T14:46:29.292Z</time>
      </trkpt>
      <trkpt lat="43.00608" lon="0.90127">
        <ele>400.501535</ele>
        <time>2022-08-09T14:46:30.493Z</time>
      </trkpt>
      <trkpt lat="43.00634" lon="0.902">
        <ele>398.761629</ele>
        <time>2022-08-09T14:46:36.350Z</time>
      </trkpt>
      <trkpt lat="43.00635" lon="0.90214">
        <ele>398.442454</ele>
        <time>2022-08-09T14:46:37.368Z</time>
      </trkpt>
      <trkpt lat="43.00617" lon="0.90245">
        <ele>397.585763</ele>
        <time>2022-08-09T14:46:40.719Z</time>
      </trkpt>
      <trkpt lat="43.00651" lon="0.90262">
        <ele>396.515284</ele>
        <time>2022-08-09T14:46:44.748Z</time>
      </trkpt>
      <trkpt lat="43.00759" lon="0.90263">
        <ele>395.146436</ele>
        <time>2022-08-09T14:46:57.249Z</time>
      </trkpt>
      <trkpt lat="43.00802" lon="0.90277">
        <ele>394.81207</ele>
        <time>2022-08-09T14:47:04.235Z</time>
      </trkpt>
      <trkpt lat="43.00898" lon="0.90364">
        <ele>393.81188</ele>
        <time>2022-08-09T14:47:20.238Z</time>
      </trkpt>
      <trkpt lat="43.01053" lon="0.9045">
        <ele>391.735778</ele>
        <time>2022-08-09T14:47:39.780Z</time>
      </trkpt>
      <trkpt lat="43.01066" lon="0.90452">
        <ele>391.47823</ele>
        <time>2022-08-09T14:47:41.283Z</time>
      </trkpt>
      <trkpt lat="43.01104" lon="0.90459">
        <ele>390.759836</ele>
        <time>2022-08-09T14:47:45.442Z</time>
      </trkpt>
      <trkpt lat="43.01197" lon="0.90461">
        <ele>389.135222</ele>
        <time>2022-08-09T14:47:55.500Z</time>
      </trkpt>
      <trkpt lat="43.01257" lon="0.90477">
        <ele>388.43853</ele>
        <time>2022-08-09T14:48:02.432Z</time>
      </trkpt>
      <trkpt lat="43.01295" lon="0.90478">
        <ele>388.012853</ele>
        <time>2022-08-09T14:48:06.910Z</time>
      </trkpt>
      <trkpt lat="43.01384" lon="0.90467">
        <ele>387.168139</ele>
        <time>2022-08-09T14:48:19.066Z</time>
      </trkpt>
      <trkpt lat="43.01484" lon="0.90467">
        <ele>386.785766</ele>
        <time>2022-08-09T14:48:33.512Z</time>
      </trkpt>
      <trkpt lat="43.01492" lon="0.90466">
        <ele>386.754398</ele>
        <time>2022-08-09T14:48:34.539Z</time>
      </trkpt>
      <trkpt lat="43.01566" lon="0.90452">
        <ele>386.291182</ele>
        <time>2022-08-09T14:48:44.040Z</time>
      </trkpt>
      <trkpt lat="43.01593" lon="0.90467">
        <ele>385.981782</ele>
        <time>2022-08-09T14:48:47.634Z</time>
      </trkpt>
      <trkpt lat="43.01619" lon="0.90524">
        <ele>385.45493</ele>
        <time>2022-08-09T14:48:53.563Z</time>
      </trkpt>
      <trkpt lat="43.01623" lon="0.90533">
        <ele>385.370043</ele>
        <time>2022-08-09T14:48:54.493Z</time>
      </trkpt>
      <trkpt lat="43.01648" lon="0.90595">
        <ele>384.819335</ele>
        <time>2022-08-09T14:49:00.681Z</time>
      </trkpt>
      <trkpt lat="43.01654" lon="0.90617">
        <ele>384.635811</ele>
        <time>2022-08-09T14:49:02.615Z</time>
      </trkpt>
      <trkpt lat="43.0166" lon="0.90664">
        <ele>384.254421</ele>
        <time>2022-08-09T14:49:06.691Z</time>
      </trkpt>
      <trkpt lat="43.01676" lon="0.90706">
        <ele>383.87112</ele>
        <time>2022-08-09T14:49:10.931Z</time>
      </trkpt>
      <trkpt lat="43.01695" lon="0.90731">
        <ele>383.581575</ele>
        <time>2022-08-09T14:49:14.320Z</time>
      </trkpt>
      <trkpt lat="43.01713" lon="0.90744">
        <ele>383.356087</ele>
        <time>2022-08-09T14:49:16.901Z</time>
      </trkpt>
      <trkpt lat="43.01742" lon="0.9075">
        <ele>383.039813</ele>
        <time>2022-08-09T14:49:20.372Z</time>
      </trkpt>
      <trkpt lat="43.01806" lon="0.90709">
        <ele>382.274067</ele>
        <time>2022-08-09T14:49:28.750Z</time>
      </trkpt>
      <trkpt lat="43.01829" lon="0.90706">
        <ele>382.024188</ele>
        <time>2022-08-09T14:49:31.436Z</time>
      </trkpt>
      <trkpt lat="43.01844" lon="0.90716">
        <ele>381.84493</ele>
        <time>2022-08-09T14:49:33.344Z</time>
      </trkpt>
      <trkpt lat="43.01856" lon="0.90733">
        <ele>381.652577</ele>
        <time>2022-08-09T14:49:35.380Z</time>
      </trkpt>
      <trkpt lat="43.01883" lon="0.90819">
        <ele>380.915861</ele>
        <time>2022-08-09T14:49:43.573Z</time>
      </trkpt>
      <trkpt lat="43.0195" lon="0.90926">
        <ele>380.372577</ele>
        <time>2022-08-09T14:49:57.566Z</time>
      </trkpt>
      <trkpt lat="43.01978" lon="0.90982">
        <ele>380.16647</ele>
        <time>2022-08-09T14:50:04.745Z</time>
      </trkpt>
      <trkpt lat="43.02011" lon="0.91056">
        <ele>379.758037</ele>
        <time>2022-08-09T14:50:13.439Z</time>
      </trkpt>
      <trkpt lat="43.02027" lon="0.91072">
        <ele>379.510904</ele>
        <time>2022-08-09T14:50:16.132Z</time>
      </trkpt>
      <trkpt lat="43.02106" lon="0.91102">
        <ele>378.531231</ele>
        <time>2022-08-09T14:50:25.900Z</time>
      </trkpt>
      <trkpt lat="43.02121" lon="0.91115">
        <ele>378.313995</ele>
        <time>2022-08-09T14:50:27.963Z</time>
      </trkpt>
      <trkpt lat="43.02149" lon="0.91155">
        <ele>377.82257</ele>
        <time>2022-08-09T14:50:32.494Z</time>
      </trkpt>
      <trkpt lat="43.02168" lon="0.9117">
        <ele>377.323005</ele>
        <time>2022-08-09T14:50:34.810Z</time>
      </trkpt>
      <trkpt lat="43.02207" lon="0.91199">
        <ele>376.271378</ele>
        <time>2022-08-09T14:50:39.616Z</time>
      </trkpt>
      <trkpt lat="43.02268" lon="0.91228">
        <ele>374.75842</ele>
        <time>2022-08-09T14:50:46.393Z</time>
      </trkpt>
      <trkpt lat="43.02285" lon="0.91262">
        <ele>374.050374</ele>
        <time>2022-08-09T14:50:49.564Z</time>
      </trkpt>
      <trkpt lat="43.0229" lon="0.91319">
        <ele>373.066592</ele>
        <time>2022-08-09T14:50:53.990Z</time>
      </trkpt>
      <trkpt lat="43.02297" lon="0.91346">
        <ele>372.545513</ele>
        <time>2022-08-09T14:50:56.322Z</time>
      </trkpt>
      <trkpt lat="43.02315" lon="0.91375">
        <ele>371.897414</ele>
        <time>2022-08-09T14:50:59.238Z</time>
      </trkpt>
      <trkpt lat="43.02384" lon="0.91418">
        <ele>370.08665</ele>
        <time>2022-08-09T14:51:07.302Z</time>
      </trkpt>
      <trkpt lat="43.02401" lon="0.91435">
        <ele>369.583008</ele>
        <time>2022-08-09T14:51:09.538Z</time>
      </trkpt>
      <trkpt lat="43.0243" lon="0.91508">
        <ele>368.385835</ele>
        <time>2022-08-09T14:51:15.959Z</time>
      </trkpt>
      <trkpt lat="43.02449" lon="0.91531">
        <ele>367.911337</ele>
        <time>2022-08-09T14:51:18.694Z</time>
      </trkpt>
      <trkpt lat="43.02526" lon="0.91592">
        <ele>366.248262</ele>
        <time>2022-08-09T14:51:28.724Z</time>
      </trkpt>
      <trkpt lat="43.02554" lon="0.91621">
        <ele>365.772879</ele>
        <time>2022-08-09T14:51:32.932Z</time>
      </trkpt>
      <trkpt lat="43.02628" lon="0.91722">
        <ele>364.900185</ele>
        <time>2022-08-09T14:51:46.091Z</time>
      </trkpt>
      <trkpt lat="43.02694" lon="0.91831">
        <ele>364.161932</ele>
        <time>2022-08-09T14:51:59.705Z</time>
      </trkpt>
      <trkpt lat="43.02725" lon="0.9187">
        <ele>363.923776</ele>
        <time>2022-08-09T14:52:05.211Z</time>
      </trkpt>
      <trkpt lat="43.02856" lon="0.9201">
        <ele>363.007918</ele>
        <time>2022-08-09T14:52:27.105Z</time>
      </trkpt>
      <trkpt lat="43.02894" lon="0.92034">
        <ele>362.786823</ele>
        <time>2022-08-09T14:52:32.660Z</time>
      </trkpt>
      <trkpt lat="43.02919" lon="0.92035">
        <ele>362.651482</ele>
        <time>2022-08-09T14:52:35.910Z</time>
      </trkpt>
      <trkpt lat="43.02994" lon="0.92014">
        <ele>362.087578</ele>
        <time>2022-08-09T14:52:45.670Z</time>
      </trkpt>
      <trkpt lat="43.03037" lon="0.92034">
        <ele>361.657099</ele>
        <time>2022-08-09T14:52:51.731Z</time>
      </trkpt>
      <trkpt lat="43.03076" lon="0.92053">
        <ele>361.266846</ele>
        <time>2022-08-09T14:52:56.591Z</time>
      </trkpt>
      <trkpt lat="43.03098" lon="0.92049">
        <ele>361.055251</ele>
        <time>2022-08-09T14:52:59.197Z</time>
      </trkpt>
      <trkpt lat="43.0312" lon="0.9203">
        <ele>360.810975</ele>
        <time>2022-08-09T14:53:02.304Z</time>
      </trkpt>
      <trkpt lat="43.03138" lon="0.92001">
        <ele>360.979072</ele>
        <time>2022-08-09T14:53:05.469Z</time>
      </trkpt>
      <trkpt lat="43.03166" lon="0.91994">
        <ele>361.28527</ele>
        <time>2022-08-09T14:53:09.021Z</time>
      </trkpt>
      <trkpt lat="43.03181" lon="0.92003">
        <ele>361.467406</ele>
        <time>2022-08-09T14:53:11.655Z</time>
      </trkpt>
      <trkpt lat="43.03193" lon="0.92019">
        <ele>361.642883</ele>
        <time>2022-08-09T14:53:13.884Z</time>
      </trkpt>
      <trkpt lat="43.03202" lon="0.92028">
        <ele>361.764585</ele>
        <time>2022-08-09T14:53:16.291Z</time>
      </trkpt>
      <trkpt lat="43.03222" lon="0.92027">
        <ele>361.973077</ele>
        <time>2022-08-09T14:53:19.763Z</time>
      </trkpt>
      <trkpt lat="43.03281" lon="0.91986">
        <ele>362.690003</ele>
        <time>2022-08-09T14:53:36.486Z</time>
      </trkpt>
      <trkpt lat="43.03295" lon="0.91983">
        <ele>363.518238</ele>
        <time>2022-08-09T14:53:41.000Z</time>
      </trkpt>
      <trkpt lat="43.0336" lon="0.91921">
        <ele>368.101893</ele>
        <time>2022-08-09T14:54:13.994Z</time>
      </trkpt>
      <trkpt lat="43.03423" lon="0.91876">
        <ele>372.190869</ele>
        <time>2022-08-09T14:54:49.540Z</time>
      </trkpt>
      <trkpt lat="43.03513" lon="0.91741">
        <ele>379.555677</ele>
        <time>2022-08-09T14:55:51.181Z</time>
      </trkpt>
      <trkpt lat="43.03607" lon="0.9153">
        <ele>386.298299</ele>
        <time>2022-08-09T14:56:42.705Z</time>
      </trkpt>
      <trkpt lat="43.03647" lon="0.91408">
        <ele>388.356591</ele>
        <time>2022-08-09T14:57:03.603Z</time>
      </trkpt>
      <trkpt lat="43.03651" lon="0.91381">
        <ele>388.549479</ele>
        <time>2022-08-09T14:57:07.540Z</time>
      </trkpt>
      <trkpt lat="43.03653" lon="0.91285">
        <ele>389.226718</ele>
        <time>2022-08-09T14:57:20.519Z</time>
      </trkpt>
      <trkpt lat="43.03654" lon="0.91278">
        <ele>389.275238</ele>
        <time>2022-08-09T14:57:21.411Z</time>
      </trkpt>
      <trkpt lat="43.03674" lon="0.91118">
        <ele>390.038279</ele>
        <time>2022-08-09T14:57:40.599Z</time>
      </trkpt>
      <trkpt lat="43.0366" lon="0.91066">
        <ele>390.207412</ele>
        <time>2022-08-09T14:57:46.717Z</time>
      </trkpt>
      <trkpt lat="43.03637" lon="0.9101">
        <ele>390.40868</ele>
        <time>2022-08-09T14:57:54.233Z</time>
      </trkpt>
      <trkpt lat="43.03594" lon="0.90944">
        <ele>391.135147</ele>
        <time>2022-08-09T14:58:06.194Z</time>
      </trkpt>
      <trkpt lat="43.03571" lon="0.90853">
        <ele>392.162009</ele>
        <time>2022-08-09T14:58:20.738Z</time>
      </trkpt>
      <trkpt lat="43.03569" lon="0.90843">
        <ele>392.271635</ele>
        <time>2022-08-09T14:58:22.390Z</time>
      </trkpt>
      <trkpt lat="43.03563" lon="0.90767">
        <ele>393.093823</ele>
        <time>2022-08-09T14:58:34.878Z</time>
      </trkpt>
      <trkpt lat="43.03569" lon="0.90669">
        <ele>394.643437</ele>
        <time>2022-08-09T14:58:51.823Z</time>
      </trkpt>
      <trkpt lat="43.03575" lon="0.90567">
        <ele>396.280367</ele>
        <time>2022-08-09T14:59:09.846Z</time>
      </trkpt>
      <trkpt lat="43.03578" lon="0.90522">
        <ele>397.007359</ele>
        <time>2022-08-09T14:59:17.647Z</time>
      </trkpt>
      <trkpt lat="43.03569" lon="0.90442">
        <ele>398.20373</ele>
        <time>2022-08-09T14:59:31.534Z</time>
      </trkpt>
      <trkpt lat="43.03531" lon="0.9032">
        <ele>400.17166</ele>
        <time>2022-08-09T14:59:54.325Z</time>
      </trkpt>
      <trkpt lat="43.03518" lon="0.90222">
        <ele>401.025687</ele>
        <time>2022-08-09T15:00:09.807Z</time>
      </trkpt>
      <trkpt lat="43.03509" lon="0.90007">
        <ele>401.924467</ele>
        <time>2022-08-09T15:00:35.427Z</time>
      </trkpt>
      <trkpt lat="43.03508" lon="0.89835">
        <ele>401.855715</ele>
        <time>2022-08-09T15:00:52.329Z</time>
      </trkpt>
      <trkpt lat="43.0351" lon="0.89706">
        <ele>402.670047</ele>
        <time>2022-08-09T15:01:07.953Z</time>
      </trkpt>
      <trkpt lat="43.03531" lon="0.89468">
        <ele>405.366394</ele>
        <time>2022-08-09T15:01:47.001Z</time>
      </trkpt>
      <trkpt lat="43.03534" lon="0.89455">
        <ele>405.568991</ele>
        <time>2022-08-09T15:01:49.496Z</time>
      </trkpt>
      <trkpt lat="43.03569" lon="0.89325">
        <ele>407.570021</ele>
        <time>2022-08-09T15:02:13.028Z</time>
      </trkpt>
      <trkpt lat="43.03669" lon="0.89127">
        <ele>410.409078</ele>
        <time>2022-08-09T15:02:50.788Z</time>
      </trkpt>
      <trkpt lat="43.03814" lon="0.88948">
        <ele>412.247308</ele>
        <time>2022-08-09T15:03:27.395Z</time>
      </trkpt>
      <trkpt lat="43.03967" lon="0.88787">
        <ele>412.073414</ele>
        <time>2022-08-09T15:03:55.229Z</time>
      </trkpt>
      <trkpt lat="43.03994" lon="0.88752">
        <ele>411.763703</ele>
        <time>2022-08-09T15:04:00.005Z</time>
      </trkpt>
      <trkpt lat="43.04034" lon="0.88516">
        <ele>410.339906</ele>
        <time>2022-08-09T15:04:21.448Z</time>
      </trkpt>
      <trkpt lat="43.04042" lon="0.88446">
        <ele>409.95565</ele>
        <time>2022-08-09T15:04:27.827Z</time>
      </trkpt>
      <trkpt lat="43.04082" lon="0.88273">
        <ele>409.403448</ele>
        <time>2022-08-09T15:04:45.744Z</time>
      </trkpt>
      <trkpt lat="43.04095" lon="0.88234">
        <ele>409.420796</ele>
        <time>2022-08-09T15:04:50.614Z</time>
      </trkpt>
      <trkpt lat="43.04113" lon="0.88199">
        <ele>409.438237</ele>
        <time>2022-08-09T15:04:55.699Z</time>
      </trkpt>
      <trkpt lat="43.04157" lon="0.88139">
        <ele>409.472987</ele>
        <time>2022-08-09T15:05:05.753Z</time>
      </trkpt>
      <trkpt lat="43.04251" lon="0.88074">
        <ele>409.54819</ele>
        <time>2022-08-09T15:05:22.099Z</time>
      </trkpt>
      <trkpt lat="43.04273" lon="0.88049">
        <ele>409.569091</ele>
        <time>2022-08-09T15:05:26.363Z</time>
      </trkpt>
      <trkpt lat="43.04303" lon="0.87905">
        <ele>409.459357</ele>
        <time>2022-08-09T15:05:41.779Z</time>
      </trkpt>
      <trkpt lat="43.04338" lon="0.87791">
        <ele>409.252302</ele>
        <time>2022-08-09T15:05:54.565Z</time>
      </trkpt>
      <trkpt lat="43.04411" lon="0.87625">
        <ele>408.823596</ele>
        <time>2022-08-09T15:06:14.027Z</time>
      </trkpt>
      <trkpt lat="43.04454" lon="0.87549">
        <ele>408.610178</ele>
        <time>2022-08-09T15:06:23.567Z</time>
      </trkpt>
      <trkpt lat="43.04487" lon="0.87467">
        <ele>408.543439</ele>
        <time>2022-08-09T15:06:32.987Z</time>
      </trkpt>
      <trkpt lat="43.04546" lon="0.87341">
        <ele>408.456256</ele>
        <time>2022-08-09T15:06:49.042Z</time>
      </trkpt>
      <trkpt lat="43.04602" lon="0.87187">
        <ele>409.198082</ele>
        <time>2022-08-09T15:07:10.337Z</time>
      </trkpt>
      <trkpt lat="43.04656" lon="0.87063">
        <ele>410.017485</ele>
        <time>2022-08-09T15:07:29.844Z</time>
      </trkpt>
      <trkpt lat="43.04759" lon="0.86885">
        <ele>411.656343</ele>
        <time>2022-08-09T15:08:01.116Z</time>
      </trkpt>
      <trkpt lat="43.04779" lon="0.86825">
        <ele>412.204084</ele>
        <time>2022-08-09T15:08:09.863Z</time>
      </trkpt>
      <trkpt lat="43.04797" lon="0.86726">
        <ele>413.042993</ele>
        <time>2022-08-09T15:08:24.053Z</time>
      </trkpt>
      <trkpt lat="43.04798" lon="0.86697">
        <ele>413.320001</ele>
        <time>2022-08-09T15:08:28.566Z</time>
      </trkpt>
      <trkpt lat="43.04789" lon="0.8661">
        <ele>414.552261</ele>
        <time>2022-08-09T15:08:43.079Z</time>
      </trkpt>
      <trkpt lat="43.0478" lon="0.86563">
        <ele>415.226304</ele>
        <time>2022-08-09T15:08:51.172Z</time>
      </trkpt>
      <trkpt lat="43.04766" lon="0.86531">
        <ele>415.751656</ele>
        <time>2022-08-09T15:08:57.552Z</time>
      </trkpt>
      <trkpt lat="43.047" lon="0.86456">
        <ele>417.552764</ele>
        <time>2022-08-09T15:09:17.071Z</time>
      </trkpt>
      <trkpt lat="43.04631" lon="0.86309">
        <ele>420.523643</ele>
        <time>2022-08-09T15:09:48.092Z</time>
      </trkpt>
      <trkpt lat="43.04595" lon="0.86199">
        <ele>423.440996</ele>
        <time>2022-08-09T15:10:10.619Z</time>
      </trkpt>
      <trkpt lat="43.04583" lon="0.8616">
        <ele>424.536051</ele>
        <time>2022-08-09T15:10:19.549Z</time>
      </trkpt>
      <trkpt lat="43.04581" lon="0.86153">
        <ele>424.746362</ele>
        <time>2022-08-09T15:10:21.369Z</time>
      </trkpt>
      <trkpt lat="43.04547" lon="0.8605">
        <ele>427.749361</ele>
        <time>2022-08-09T15:10:47.671Z</time>
      </trkpt>
      <trkpt lat="43.04511" lon="0.85857">
        <ele>434.381726</ele>
        <time>2022-08-09T15:11:35.732Z</time>
      </trkpt>
      <trkpt lat="43.04484" lon="0.85788">
        <ele>437.104773</ele>
        <time>2022-08-09T15:11:55.408Z</time>
      </trkpt>
      <trkpt lat="43.0443" lon="0.85567">
        <ele>445.278063</ele>
        <time>2022-08-09T15:12:54.324Z</time>
      </trkpt>
      <trkpt lat="43.04407" lon="0.85467">
        <ele>448.651566</ele>
        <time>2022-08-09T15:13:19.162Z</time>
      </trkpt>
      <trkpt lat="43.04379" lon="0.85373">
        <ele>451.941346</ele>
        <time>2022-08-09T15:13:42.658Z</time>
      </trkpt>
      <trkpt lat="43.04368" lon="0.8535">
        <ele>452.8126</ele>
        <time>2022-08-09T15:13:48.586Z</time>
      </trkpt>
      <trkpt lat="43.04288" lon="0.85103">
        <ele>462.033412</ele>
        <time>2022-08-09T15:14:52.551Z</time>
      </trkpt>
      <trkpt lat="43.04255" lon="0.85027">
        <ele>465.866551</ele>
        <time>2022-08-09T15:15:17.634Z</time>
      </trkpt>
      <trkpt lat="43.04247" lon="0.84977">
        <ele>468.062541</ele>
        <time>2022-08-09T15:15:33.268Z</time>
      </trkpt>
      <trkpt lat="43.04238" lon="0.84856">
        <ele>473.461473</ele>
        <time>2022-08-09T15:16:09.352Z</time>
      </trkpt>
      <trkpt lat="43.04247" lon="0.84846">
        <ele>474.217734</ele>
        <time>2022-08-09T15:16:15.405Z</time>
      </trkpt>
      <trkpt lat="43.04253" lon="0.84828">
        <ele>475.093733</ele>
        <time>2022-08-09T15:16:21.448Z</time>
      </trkpt>
      <trkpt lat="43.04267" lon="0.8471">
        <ele>480.599696</ele>
        <time>2022-08-09T15:16:58.068Z</time>
      </trkpt>
      <trkpt lat="43.04291" lon="0.84589">
        <ele>483.399128</ele>
        <time>2022-08-09T15:17:26.871Z</time>
      </trkpt>
      <trkpt lat="43.04312" lon="0.84504">
        <ele>484.786353</ele>
        <time>2022-08-09T15:17:40.641Z</time>
      </trkpt>
      <trkpt lat="43.04322" lon="0.84484">
        <ele>485.167904</ele>
        <time>2022-08-09T15:17:43.991Z</time>
      </trkpt>
      <trkpt lat="43.0442" lon="0.84328">
        <ele>483.097326</ele>
        <time>2022-08-09T15:18:01.243Z</time>
      </trkpt>
      <trkpt lat="43.04461" lon="0.84273">
        <ele>481.807293</ele>
        <time>2022-08-09T15:18:07.128Z</time>
      </trkpt>
      <trkpt lat="43.04544" lon="0.84131">
        <ele>474.718755</ele>
        <time>2022-08-09T15:18:19.612Z</time>
      </trkpt>
      <trkpt lat="43.04593" lon="0.84032">
        <ele>469.805988</ele>
        <time>2022-08-09T15:18:27.454Z</time>
      </trkpt>
      <trkpt lat="43.04625" lon="0.83955">
        <ele>465.931727</ele>
        <time>2022-08-09T15:18:33.339Z</time>
      </trkpt>
      <trkpt lat="43.04652" lon="0.83893">
        <ele>462.793244</ele>
        <time>2022-08-09T15:18:38.164Z</time>
      </trkpt>
      <trkpt lat="43.04855" lon="0.83919">
        <ele>455.222193</ele>
        <time>2022-08-09T15:18:58.428Z</time>
      </trkpt>
      <trkpt lat="43.04955" lon="0.83959">
        <ele>454.500976</ele>
        <time>2022-08-09T15:19:11.484Z</time>
      </trkpt>
      <trkpt lat="43.04995" lon="0.83984">
        <ele>454.193158</ele>
        <time>2022-08-09T15:19:18.618Z</time>
      </trkpt>
      <trkpt lat="43.05042" lon="0.84022">
        <ele>453.879542</ele>
        <time>2022-08-09T15:19:27.971Z</time>
      </trkpt>
      <trkpt lat="43.05089" lon="0.84032">
        <ele>453.655728</ele>
        <time>2022-08-09T15:19:35.614Z</time>
      </trkpt>
      <trkpt lat="43.05138" lon="0.84023">
        <ele>453.426444</ele>
        <time>2022-08-09T15:19:42.467Z</time>
      </trkpt>
      <trkpt lat="43.05168" lon="0.83998">
        <ele>453.264141</ele>
        <time>2022-08-09T15:19:46.639Z</time>
      </trkpt>
      <trkpt lat="43.05229" lon="0.83925">
        <ele>451.547188</ele>
        <time>2022-08-09T15:19:55.582Z</time>
      </trkpt>
      <trkpt lat="43.05263" lon="0.83902">
        <ele>450.527894</ele>
        <time>2022-08-09T15:19:59.480Z</time>
      </trkpt>
      <trkpt lat="43.05286" lon="0.83896">
        <ele>449.900992</ele>
        <time>2022-08-09T15:20:01.782Z</time>
      </trkpt>
      <trkpt lat="43.0533" lon="0.83892">
        <ele>448.709453</ele>
        <time>2022-08-09T15:20:06.138Z</time>
      </trkpt>
      <trkpt lat="43.05353" lon="0.83896">
        <ele>448.319135</ele>
        <time>2022-08-09T15:20:08.418Z</time>
      </trkpt>
      <trkpt lat="43.05377" lon="0.83905">
        <ele>448.25838</ele>
        <time>2022-08-09T15:20:11.060Z</time>
      </trkpt>
      <trkpt lat="43.0545" lon="0.83956">
        <ele>448.05568</ele>
        <time>2022-08-09T15:20:21.372Z</time>
      </trkpt>
      <trkpt lat="43.05451" lon="0.83939">
        <ele>448.026267</ele>
        <time>2022-08-09T15:20:24.656Z</time>
      </trkpt>
      <trkpt lat="43.05425" lon="0.83859">
        <ele>448.309473</ele>
        <time>2022-08-09T15:20:41.928Z</time>
      </trkpt>
      <trkpt lat="43.05405" lon="0.83761">
        <ele>450.969816</ele>
        <time>2022-08-09T15:21:08.230Z</time>
      </trkpt>
      <trkpt lat="43.05329" lon="0.83495">
        <ele>456.319024</ele>
        <time>2022-08-09T15:22:24.210Z</time>
      </trkpt>
      <trkpt lat="43.05311" lon="0.83433">
        <ele>457.172751</ele>
        <time>2022-08-09T15:22:33.961Z</time>
      </trkpt>
      <trkpt lat="43.05285" lon="0.83386">
        <ele>455.340799</ele>
        <time>2022-08-09T15:22:40.129Z</time>
      </trkpt>
      <trkpt lat="43.05235" lon="0.83314">
        <ele>449.524839</ele>
        <time>2022-08-09T15:22:49.461Z</time>
      </trkpt>
      <trkpt lat="43.05165" lon="0.83147">
        <ele>435.764169</ele>
        <time>2022-08-09T15:23:06.333Z</time>
      </trkpt>
      <trkpt lat="43.05149" lon="0.83103">
        <ele>431.319171</ele>
        <time>2022-08-09T15:23:10.606Z</time>
      </trkpt>
      <trkpt lat="43.05144" lon="0.83077">
        <ele>428.991129</ele>
        <time>2022-08-09T15:23:12.850Z</time>
      </trkpt>
      <trkpt lat="43.05145" lon="0.82954">
        <ele>418.43714</ele>
        <time>2022-08-09T15:23:23.627Z</time>
      </trkpt>
      <trkpt lat="43.0517" lon="0.82819">
        <ele>407.968475</ele>
        <time>2022-08-09T15:23:36.011Z</time>
      </trkpt>
      <trkpt lat="43.05179" lon="0.82677">
        <ele>399.227474</ele>
        <time>2022-08-09T15:23:48.847Z</time>
      </trkpt>
      <trkpt lat="43.05176" lon="0.82625">
        <ele>396.787261</ele>
        <time>2022-08-09T15:23:53.632Z</time>
      </trkpt>
      <trkpt lat="43.05176" lon="0.82505">
        <ele>391.059564</ele>
        <time>2022-08-09T15:24:05.359Z</time>
      </trkpt>
      <trkpt lat="43.05217" lon="0.82508">
        <ele>391.203255</ele>
        <time>2022-08-09T15:24:09.869Z</time>
      </trkpt>
      <trkpt lat="43.05227" lon="0.82494">
        <ele>391.305104</ele>
        <time>2022-08-09T15:24:11.898Z</time>
      </trkpt>
      <trkpt lat="43.05271" lon="0.82388">
        <ele>391.934559</ele>
        <time>2022-08-09T15:24:34.080Z</time>
      </trkpt>
      <trkpt lat="43.05285" lon="0.82344">
        <ele>392.179662</ele>
        <time>2022-08-09T15:24:43.394Z</time>
      </trkpt>
      <trkpt lat="43.05308" lon="0.82226">
        <ele>391.793791</ele>
        <time>2022-08-09T15:25:03.157Z</time>
      </trkpt>
      <trkpt lat="43.05348" lon="0.81977">
        <ele>388.243342</ele>
        <time>2022-08-09T15:25:22.423Z</time>
      </trkpt>
      <trkpt lat="43.05366" lon="0.81928">
        <ele>386.911275</ele>
        <time>2022-08-09T15:25:26.210Z</time>
      </trkpt>
      <trkpt lat="43.05395" lon="0.81871">
        <ele>385.266319</ele>
        <time>2022-08-09T15:25:31.185Z</time>
      </trkpt>
      <trkpt lat="43.05467" lon="0.81644">
        <ele>381.058569</ele>
        <time>2022-08-09T15:25:50.670Z</time>
      </trkpt>
      <trkpt lat="43.05481" lon="0.81625">
        <ele>380.869075</ele>
        <time>2022-08-09T15:25:52.914Z</time>
      </trkpt>
      <trkpt lat="43.05613" lon="0.8153">
        <ele>379.457433</ele>
        <time>2022-08-09T15:26:11.923Z</time>
      </trkpt>
      <trkpt lat="43.0566" lon="0.81488">
        <ele>379.403227</ele>
        <time>2022-08-09T15:26:19.925Z</time>
      </trkpt>
      <trkpt lat="43.05673" lon="0.81483">
        <ele>379.401189</ele>
        <time>2022-08-09T15:26:21.946Z</time>
      </trkpt>
      <trkpt lat="43.05707" lon="0.81497">
        <ele>379.395885</ele>
        <time>2022-08-09T15:26:27.084Z</time>
      </trkpt>
      <trkpt lat="43.05733" lon="0.81507">
        <ele>379.391779</ele>
        <time>2022-08-09T15:26:31.139Z</time>
      </trkpt>
      <trkpt lat="43.05779" lon="0.81534">
        <ele>379.384156</ele>
        <time>2022-08-09T15:26:39.178Z</time>
      </trkpt>
      <trkpt lat="43.05827" lon="0.81573">
        <ele>379.988297</ele>
        <time>2022-08-09T15:26:47.410Z</time>
      </trkpt>
      <trkpt lat="43.05996" lon="0.81553">
        <ele>383.194774</ele>
        <time>2022-08-09T15:27:22.172Z</time>
      </trkpt>
      <trkpt lat="43.0594" lon="0.81308">
        <ele>392.586782</ele>
        <time>2022-08-09T15:28:28.022Z</time>
      </trkpt>
      <trkpt lat="43.05907" lon="0.81164">
        <ele>400.696794</ele>
        <time>2022-08-09T15:29:21.373Z</time>
      </trkpt>
      <trkpt lat="43.05907" lon="0.81095">
        <ele>404.31853</ele>
        <time>2022-08-09T15:29:46.532Z</time>
      </trkpt>
      <trkpt lat="43.05923" lon="0.80954">
        <ele>411.649747</ele>
        <time>2022-08-09T15:30:32.592Z</time>
      </trkpt>
      <trkpt lat="43.05935" lon="0.80906">
        <ele>414.32787</ele>
        <time>2022-08-09T15:30:47.912Z</time>
      </trkpt>
      <trkpt lat="43.05959" lon="0.80865">
        <ele>415.819807</ele>
        <time>2022-08-09T15:31:00.447Z</time>
      </trkpt>
      <trkpt lat="43.05992" lon="0.80778">
        <ele>418.124679</ele>
        <time>2022-08-09T15:31:21.061Z</time>
      </trkpt>
      <trkpt lat="43.05988" lon="0.80751">
        <ele>418.759957</ele>
        <time>2022-08-09T15:31:26.187Z</time>
      </trkpt>
      <trkpt lat="43.05953" lon="0.80663">
        <ele>420.722403</ele>
        <time>2022-08-09T15:31:42.447Z</time>
      </trkpt>
      <trkpt lat="43.05822" lon="0.80345">
        <ele>422.699428</ele>
        <time>2022-08-09T15:32:27.872Z</time>
      </trkpt>
      <trkpt lat="43.05812" lon="0.80321">
        <ele>422.832249</ele>
        <time>2022-08-09T15:32:31.672Z</time>
      </trkpt>
      <trkpt lat="43.05748" lon="0.80157">
        <ele>423.127044</ele>
        <time>2022-08-09T15:32:55.680Z</time>
      </trkpt>
      <trkpt lat="43.05587" lon="0.79879">
        <ele>422.143363</ele>
        <time>2022-08-09T15:33:28.398Z</time>
      </trkpt>
      <trkpt lat="43.05471" lon="0.79705">
        <ele>422.540046</ele>
        <time>2022-08-09T15:33:56.354Z</time>
      </trkpt>
      <trkpt lat="43.0537" lon="0.79539">
        <ele>423.132879</ele>
        <time>2022-08-09T15:34:24.193Z</time>
      </trkpt>
      <trkpt lat="43.05284" lon="0.79431">
        <ele>423.507038</ele>
        <time>2022-08-09T15:34:40.579Z</time>
      </trkpt>
      <trkpt lat="43.05239" lon="0.79359">
        <ele>423.695525</ele>
        <time>2022-08-09T15:34:50.791Z</time>
      </trkpt>
      <trkpt lat="43.05203" lon="0.79284">
        <ele>424.29208</ele>
        <time>2022-08-09T15:35:01.962Z</time>
      </trkpt>
      <trkpt lat="43.05118" lon="0.79086">
        <ele>428.251298</ele>
        <time>2022-08-09T15:35:46.369Z</time>
      </trkpt>
      <trkpt lat="43.05055" lon="0.78921">
        <ele>430.679862</ele>
        <time>2022-08-09T15:36:20.062Z</time>
      </trkpt>
      <trkpt lat="43.05051" lon="0.78904">
        <ele>430.916471</ele>
        <time>2022-08-09T15:36:22.132Z</time>
      </trkpt>
      <trkpt lat="43.05006" lon="0.7877">
        <ele>429.539047</ele>
        <time>2022-08-09T15:36:35.416Z</time>
      </trkpt>
      <trkpt lat="43.04979" lon="0.78625">
        <ele>427.076437</ele>
        <time>2022-08-09T15:36:46.285Z</time>
      </trkpt>
      <trkpt lat="43.04959" lon="0.78429">
        <ele>422.559325</ele>
        <time>2022-08-09T15:37:01.089Z</time>
      </trkpt>
      <trkpt lat="43.04954" lon="0.78344">
        <ele>420.48355</ele>
        <time>2022-08-09T15:37:07.520Z</time>
      </trkpt>
      <trkpt lat="43.04963" lon="0.78331">
        <ele>420.018048</ele>
        <time>2022-08-09T15:37:08.912Z</time>
      </trkpt>
      <trkpt lat="43.04996" lon="0.78311">
        <ele>418.779931</ele>
        <time>2022-08-09T15:37:12.624Z</time>
      </trkpt>
      <trkpt lat="43.05009" lon="0.78284">
        <ele>417.980354</ele>
        <time>2022-08-09T15:37:15.002Z</time>
      </trkpt>
      <trkpt lat="43.05015" lon="0.78248">
        <ele>417.040255</ele>
        <time>2022-08-09T15:37:17.764Z</time>
      </trkpt>
      <trkpt lat="43.04996" lon="0.78205">
        <ele>415.795315</ele>
        <time>2022-08-09T15:37:21.293Z</time>
      </trkpt>
      <trkpt lat="43.04937" lon="0.78149">
        <ele>411.265211</ele>
        <time>2022-08-09T15:37:28.085Z</time>
      </trkpt>
      <trkpt lat="43.04889" lon="0.78111">
        <ele>407.707772</ele>
        <time>2022-08-09T15:37:33.106Z</time>
      </trkpt>
      <trkpt lat="43.04867" lon="0.78104">
        <ele>406.307431</ele>
        <time>2022-08-09T15:37:35.048Z</time>
      </trkpt>
      <trkpt lat="43.0482" lon="0.78093">
        <ele>403.316178</ele>
        <time>2022-08-09T15:37:39.256Z</time>
      </trkpt>
      <trkpt lat="43.04804" lon="0.78082">
        <ele>402.207564</ele>
        <time>2022-08-09T15:37:40.858Z</time>
      </trkpt>
      <trkpt lat="43.04788" lon="0.78062">
        <ele>400.864221</ele>
        <time>2022-08-09T15:37:42.818Z</time>
      </trkpt>
      <trkpt lat="43.04764" lon="0.7805">
        <ele>399.34357</ele>
        <time>2022-08-09T15:37:45.048Z</time>
      </trkpt>
      <trkpt lat="43.04761" lon="0.78028">
        <ele>398.364368</ele>
        <time>2022-08-09T15:37:46.498Z</time>
      </trkpt>
      <trkpt lat="43.0476" lon="0.78021">
        <ele>398.029856</ele>
        <time>2022-08-09T15:37:46.996Z</time>
      </trkpt>
      <trkpt lat="43.04759" lon="0.78017">
        <ele>397.862073</ele>
        <time>2022-08-09T15:37:47.244Z</time>
      </trkpt>
      <trkpt lat="43.04753" lon="0.77965">
        <ele>395.482265</ele>
        <time>2022-08-09T15:37:50.865Z</time>
      </trkpt>
      <trkpt lat="43.0475" lon="0.77939">
        <ele>394.319761</ele>
        <time>2022-08-09T15:37:52.691Z</time>
      </trkpt>
      <trkpt lat="43.04747" lon="0.77901">
        <ele>393.184261</ele>
        <time>2022-08-09T15:37:55.388Z</time>
      </trkpt>
      <trkpt lat="43.04747" lon="0.77854">
        <ele>392.820865</ele>
        <time>2022-08-09T15:37:58.974Z</time>
      </trkpt>
      <trkpt lat="43.04747" lon="0.77837">
        <ele>392.686683</ele>
        <time>2022-08-09T15:38:00.431Z</time>
      </trkpt>
      <trkpt lat="43.04748" lon="0.77771">
        <ele>392.186003</ele>
        <time>2022-08-09T15:38:06.798Z</time>
      </trkpt>
      <trkpt lat="43.04742" lon="0.77726">
        <ele>391.829655</ele>
        <time>2022-08-09T15:38:12.709Z</time>
      </trkpt>
      <trkpt lat="43.04745" lon="0.7769">
        <ele>391.550794</ele>
        <time>2022-08-09T15:38:17.437Z</time>
      </trkpt>
      <trkpt lat="43.0475" lon="0.77682">
        <ele>391.471249</ele>
        <time>2022-08-09T15:38:18.683Z</time>
      </trkpt>
      <trkpt lat="43.04748" lon="0.77662">
        <ele>391.409431</ele>
        <time>2022-08-09T15:38:21.185Z</time>
      </trkpt>
      <trkpt lat="43.04739" lon="0.77655">
        <ele>391.407258</ele>
        <time>2022-08-09T15:38:22.967Z</time>
      </trkpt>
      <trkpt lat="43.04734" lon="0.7765">
        <ele>391.405741</ele>
        <time>2022-08-09T15:38:24.157Z</time>
      </trkpt>
      <trkpt lat="43.04725" lon="0.77623">
        <ele>391.401216</ele>
        <time>2022-08-09T15:38:27.592Z</time>
      </trkpt>
      <trkpt lat="43.04712" lon="0.77486">
        <ele>391.379838</ele>
        <time>2022-08-09T15:38:42.367Z</time>
      </trkpt>
      <trkpt lat="43.04717" lon="0.77444">
        <ele>391.372713</ele>
        <time>2022-08-09T15:38:46.665Z</time>
      </trkpt>
      <trkpt lat="43.04719" lon="0.77436">
        <ele>391.343281</ele>
        <time>2022-08-09T15:38:47.389Z</time>
      </trkpt>
      <trkpt lat="43.04741" lon="0.77335">
        <ele>390.935484</ele>
        <time>2022-08-09T15:38:57.104Z</time>
      </trkpt>
      <trkpt lat="43.04761" lon="0.77089">
        <ele>390.908732</ele>
        <time>2022-08-09T15:39:21.409Z</time>
      </trkpt>
      <trkpt lat="43.04779" lon="0.7683">
        <ele>393.843478</ele>
        <time>2022-08-09T15:40:00.440Z</time>
      </trkpt>
      <trkpt lat="43.04789" lon="0.76751">
        <ele>395.309138</ele>
        <time>2022-08-09T15:40:16.314Z</time>
      </trkpt>
      <trkpt lat="43.04884" lon="0.76514">
        <ele>403.573131</ele>
        <time>2022-08-09T15:41:21.580Z</time>
      </trkpt>
      <trkpt lat="43.04982" lon="0.76297">
        <ele>411.187682</ele>
        <time>2022-08-09T15:42:22.115Z</time>
      </trkpt>
      <trkpt lat="43.04989" lon="0.76269">
        <ele>411.396796</ele>
        <time>2022-08-09T15:42:28.078Z</time>
      </trkpt>
      <trkpt lat="43.05005" lon="0.76078">
        <ele>412.146826</ele>
        <time>2022-08-09T15:42:53.477Z</time>
      </trkpt>
      <trkpt lat="43.05023" lon="0.75891">
        <ele>407.022212</ele>
        <time>2022-08-09T15:43:07.146Z</time>
      </trkpt>
      <trkpt lat="43.05026" lon="0.75732">
        <ele>401.502748</ele>
        <time>2022-08-09T15:43:17.639Z</time>
      </trkpt>
      <trkpt lat="43.05043" lon="0.75658">
        <ele>398.646799</ele>
        <time>2022-08-09T15:43:22.859Z</time>
      </trkpt>
      <trkpt lat="43.05059" lon="0.75586">
        <ele>395.867065</ele>
        <time>2022-08-09T15:43:28.183Z</time>
      </trkpt>
      <trkpt lat="43.0506" lon="0.7558">
        <ele>395.62929</ele>
        <time>2022-08-09T15:43:28.651Z</time>
      </trkpt>
      <trkpt lat="43.05062" lon="0.75572">
        <ele>395.319789</ele>
        <time>2022-08-09T15:43:29.261Z</time>
      </trkpt>
      <trkpt lat="43.0506" lon="0.75372">
        <ele>393.674545</ele>
        <time>2022-08-09T15:43:47.026Z</time>
      </trkpt>
      <trkpt lat="43.0508" lon="0.75171">
        <ele>392.994132</ele>
        <time>2022-08-09T15:44:11.638Z</time>
      </trkpt>
      <trkpt lat="43.05087" lon="0.74889">
        <ele>390.731672</ele>
        <time>2022-08-09T15:44:36.031Z</time>
      </trkpt>
      <trkpt lat="43.05083" lon="0.74772">
        <ele>389.249239</ele>
        <time>2022-08-09T15:44:45.259Z</time>
      </trkpt>
      <trkpt lat="43.05063" lon="0.74663">
        <ele>387.634458</ele>
        <time>2022-08-09T15:44:54.067Z</time>
      </trkpt>
      <trkpt lat="43.05011" lon="0.74481">
        <ele>385.565059</ele>
        <time>2022-08-09T15:45:10.620Z</time>
      </trkpt>
      <trkpt lat="43.05004" lon="0.74464">
        <ele>385.397236</ele>
        <time>2022-08-09T15:45:12.535Z</time>
      </trkpt>
      <trkpt lat="43.04973" lon="0.74409">
        <ele>384.82673</ele>
        <time>2022-08-09T15:45:19.432Z</time>
      </trkpt>
      <trkpt lat="43.04947" lon="0.74376">
        <ele>384.393202</ele>
        <time>2022-08-09T15:45:23.676Z</time>
      </trkpt>
      <trkpt lat="43.04897" lon="0.7433">
        <ele>383.475924</ele>
        <time>2022-08-09T15:45:30.540Z</time>
      </trkpt>
      <trkpt lat="43.04892" lon="0.74326">
        <ele>383.385866</ele>
        <time>2022-08-09T15:45:31.276Z</time>
      </trkpt>
      <trkpt lat="43.04866" lon="0.74303">
        <ele>382.916778</ele>
        <time>2022-08-09T15:45:34.782Z</time>
      </trkpt>
      <trkpt lat="43.04857" lon="0.74288">
        <ele>382.698756</ele>
        <time>2022-08-09T15:45:36.508Z</time>
      </trkpt>
      <trkpt lat="43.04854" lon="0.7426">
        <ele>382.389421</ele>
        <time>2022-08-09T15:45:38.693Z</time>
      </trkpt>
      <trkpt lat="43.04875" lon="0.74189">
        <ele>381.694521</ele>
        <time>2022-08-09T15:45:45.056Z</time>
      </trkpt>
      <trkpt lat="43.04879" lon="0.74177">
        <ele>381.639045</ele>
        <time>2022-08-09T15:45:46.073Z</time>
      </trkpt>
      <trkpt lat="43.0488" lon="0.74172">
        <ele>381.614827</ele>
        <time>2022-08-09T15:45:46.524Z</time>
      </trkpt>
      <trkpt lat="43.04885" lon="0.74145">
        <ele>381.493214</ele>
        <time>2022-08-09T15:45:48.958Z</time>
      </trkpt>
      <trkpt lat="43.04903" lon="0.74056">
        <ele>381.085554</ele>
        <time>2022-08-09T15:45:57.154Z</time>
      </trkpt>
      <trkpt lat="43.0491" lon="0.73987">
        <ele>380.781726</ele>
        <time>2022-08-09T15:46:05.462Z</time>
      </trkpt>
      <trkpt lat="43.04905" lon="0.73886">
        <ele>381.402139</ele>
        <time>2022-08-09T15:46:19.685Z</time>
      </trkpt>
      <trkpt lat="43.0487" lon="0.73903">
        <ele>381.811114</ele>
        <time>2022-08-09T15:46:27.335Z</time>
      </trkpt>
      <trkpt lat="43.04703" lon="0.73952">
        <ele>384.564833</ele>
        <time>2022-08-09T15:47:00.379Z</time>
      </trkpt>
      <trkpt lat="43.04657" lon="0.73953">
        <ele>385.502718</ele>
        <time>2022-08-09T15:47:10.884Z</time>
      </trkpt>
      <trkpt lat="43.04584" lon="0.73937">
        <ele>387.8115</ele>
        <time>2022-08-09T15:47:32.806Z</time>
      </trkpt>
      <trkpt lat="43.04552" lon="0.73939">
        <ele>389.267117</ele>
        <time>2022-08-09T15:47:43.202Z</time>
      </trkpt>
      <trkpt lat="43.04517" lon="0.73943">
        <ele>390.857481</ele>
        <time>2022-08-09T15:47:55.069Z</time>
      </trkpt>
      <trkpt lat="43.04494" lon="0.73944">
        <ele>391.901174</ele>
        <time>2022-08-09T15:48:03.541Z</time>
      </trkpt>
      <trkpt lat="43.04458" lon="0.73936">
        <ele>393.521094</ele>
        <time>2022-08-09T15:48:15.922Z</time>
      </trkpt>
      <trkpt lat="43.04398" lon="0.73895">
        <ele>396.558691</ele>
        <time>2022-08-09T15:48:39.432Z</time>
      </trkpt>
      <trkpt lat="43.04272" lon="0.73813">
        <ele>402.803358</ele>
        <time>2022-08-09T15:49:24.147Z</time>
      </trkpt>
      <trkpt lat="43.04253" lon="0.73808">
        <ele>403.678515</ele>
        <time>2022-08-09T15:49:30.092Z</time>
      </trkpt>
      <trkpt lat="43.04247" lon="0.73792">
        <ele>404.236955</ele>
        <time>2022-08-09T15:49:34.189Z</time>
      </trkpt>
      <trkpt lat="43.04091" lon="0.73596">
        <ele>413.665302</ele>
        <time>2022-08-09T15:50:43.107Z</time>
      </trkpt>
      <trkpt lat="43.03962" lon="0.73514">
        <ele>420.177465</ele>
        <time>2022-08-09T15:51:31.674Z</time>
      </trkpt>
      <trkpt lat="43.03878" lon="0.73436">
        <ele>424.542053</ele>
        <time>2022-08-09T15:52:04.916Z</time>
      </trkpt>
      <trkpt lat="43.03841" lon="0.73392">
        <ele>426.574398</ele>
        <time>2022-08-09T15:52:19.806Z</time>
      </trkpt>
      <trkpt lat="43.03819" lon="0.7335">
        <ele>427.304371</ele>
        <time>2022-08-09T15:52:30.500Z</time>
      </trkpt>
      <trkpt lat="43.038" lon="0.7327">
        <ele>428.507099</ele>
        <time>2022-08-09T15:52:45.823Z</time>
      </trkpt>
      <trkpt lat="43.03789" lon="0.73215">
        <ele>429.317874</ele>
        <time>2022-08-09T15:52:54.363Z</time>
      </trkpt>
      <trkpt lat="43.03754" lon="0.73169">
        <ele>429.889503</ele>
        <time>2022-08-09T15:53:02.217Z</time>
      </trkpt>
      <trkpt lat="43.03744" lon="0.73135">
        <ele>429.577699</ele>
        <time>2022-08-09T15:53:05.672Z</time>
      </trkpt>
      <trkpt lat="43.03723" lon="0.7303">
        <ele>428.654533</ele>
        <time>2022-08-09T15:53:14.789Z</time>
      </trkpt>
      <trkpt lat="43.03715" lon="0.72937">
        <ele>427.895992</ele>
        <time>2022-08-09T15:53:22.363Z</time>
      </trkpt>
      <trkpt lat="43.03705" lon="0.72911">
        <ele>427.777347</ele>
        <time>2022-08-09T15:53:24.808Z</time>
      </trkpt>
      <trkpt lat="43.03687" lon="0.72884">
        <ele>427.634044</ele>
        <time>2022-08-09T15:53:27.869Z</time>
      </trkpt>
      <trkpt lat="43.03584" lon="0.7278">
        <ele>426.98556</ele>
        <time>2022-08-09T15:53:45.726Z</time>
      </trkpt>
      <trkpt lat="43.03573" lon="0.72762">
        <ele>427.173479</ele>
        <time>2022-08-09T15:53:49.020Z</time>
      </trkpt>
      <trkpt lat="43.03534" lon="0.72638">
        <ele>428.242575</ele>
        <time>2022-08-09T15:54:09.264Z</time>
      </trkpt>
      <trkpt lat="43.03506" lon="0.7253">
        <ele>429.156069</ele>
        <time>2022-08-09T15:54:25.453Z</time>
      </trkpt>
      <trkpt lat="43.0347" lon="0.72312">
        <ele>430.951467</ele>
        <time>2022-08-09T15:54:56.483Z</time>
      </trkpt>
      <trkpt lat="43.0347" lon="0.72166">
        <ele>431.740328</ele>
        <time>2022-08-09T15:55:18.449Z</time>
      </trkpt>
      <trkpt lat="43.03441" lon="0.72094">
        <ele>432.184416</ele>
        <time>2022-08-09T15:55:29.001Z</time>
      </trkpt>
      <trkpt lat="43.03424" lon="0.71996">
        <ele>430.265159</ele>
        <time>2022-08-09T15:55:37.433Z</time>
      </trkpt>
      <trkpt lat="43.03421" lon="0.71895">
        <ele>428.066018</ele>
        <time>2022-08-09T15:55:44.692Z</time>
      </trkpt>
      <trkpt lat="43.03433" lon="0.71793">
        <ele>425.867856</ele>
        <time>2022-08-09T15:55:51.899Z</time>
      </trkpt>
      <trkpt lat="43.03431" lon="0.71744">
        <ele>424.82059</ele>
        <time>2022-08-09T15:55:55.346Z</time>
      </trkpt>
      <trkpt lat="43.03426" lon="0.71717">
        <ele>424.220825</ele>
        <time>2022-08-09T15:55:57.396Z</time>
      </trkpt>
      <trkpt lat="43.0341" lon="0.71676">
        <ele>423.243552</ele>
        <time>2022-08-09T15:56:00.834Z</time>
      </trkpt>
      <trkpt lat="43.03397" lon="0.71623">
        <ele>422.058846</ele>
        <time>2022-08-09T15:56:05.463Z</time>
      </trkpt>
      <trkpt lat="43.03411" lon="0.71483">
        <ele>422.341953</ele>
        <time>2022-08-09T15:56:23.140Z</time>
      </trkpt>
      <trkpt lat="43.03391" lon="0.71463">
        <ele>422.51629</ele>
        <time>2022-08-09T15:56:28.386Z</time>
      </trkpt>
      <trkpt lat="43.03382" lon="0.71439">
        <ele>422.655388</ele>
        <time>2022-08-09T15:56:32.229Z</time>
      </trkpt>
      <trkpt lat="43.03377" lon="0.71327">
        <ele>423.270409</ele>
        <time>2022-08-09T15:56:48.658Z</time>
      </trkpt>
      <trkpt lat="43.03384" lon="0.712">
        <ele>424.025084</ele>
        <time>2022-08-09T15:57:05.838Z</time>
      </trkpt>
      <trkpt lat="43.03371" lon="0.71115">
        <ele>424.381102</ele>
        <time>2022-08-09T15:57:16.078Z</time>
      </trkpt>
      <trkpt lat="43.03368" lon="0.71053">
        <ele>424.249571</ele>
        <time>2022-08-09T15:57:22.850Z</time>
      </trkpt>
      <trkpt lat="43.03359" lon="0.70865">
        <ele>424.162216</ele>
        <time>2022-08-09T15:57:40.838Z</time>
      </trkpt>
      <trkpt lat="43.03363" lon="0.70809">
        <ele>424.756419</ele>
        <time>2022-08-09T15:57:46.377Z</time>
      </trkpt>
      <trkpt lat="43.03378" lon="0.70735">
        <ele>425.565921</ele>
        <time>2022-08-09T15:57:56.499Z</time>
      </trkpt>
      <trkpt lat="43.0339" lon="0.70701">
        <ele>425.962864</ele>
        <time>2022-08-09T15:58:02.647Z</time>
      </trkpt>
      <trkpt lat="43.03435" lon="0.70528">
        <ele>431.061221</ele>
        <time>2022-08-09T15:58:47.197Z</time>
      </trkpt>
      <trkpt lat="43.03437" lon="0.70477">
        <ele>432.813765</ele>
        <time>2022-08-09T15:59:01.468Z</time>
      </trkpt>
      <trkpt lat="43.0343" lon="0.70399">
        <ele>435.234302</ele>
        <time>2022-08-09T15:59:21.771Z</time>
      </trkpt>
      <trkpt lat="43.0343" lon="0.70334">
        <ele>436.351802</ele>
        <time>2022-08-09T15:59:36.856Z</time>
      </trkpt>
      <trkpt lat="43.03468" lon="0.7019">
        <ele>438.982324</ele>
        <time>2022-08-09T16:00:02.198Z</time>
      </trkpt>
      <trkpt lat="43.03467" lon="0.70139">
        <ele>438.189612</ele>
        <time>2022-08-09T16:00:06.811Z</time>
      </trkpt>
      <trkpt lat="43.03461" lon="0.70092">
        <ele>436.96646</ele>
        <time>2022-08-09T16:00:10.477Z</time>
      </trkpt>
      <trkpt lat="43.03438" lon="0.70025">
        <ele>435.087415</ele>
        <time>2022-08-09T16:00:15.694Z</time>
      </trkpt>
      <trkpt lat="43.0343" lon="0.69979">
        <ele>433.898986</ele>
        <time>2022-08-09T16:00:18.897Z</time>
      </trkpt>
      <trkpt lat="43.0343" lon="0.69883">
        <ele>430.905855</ele>
        <time>2022-08-09T16:00:25.385Z</time>
      </trkpt>
      <trkpt lat="43.03427" lon="0.69812">
        <ele>428.405363</ele>
        <time>2022-08-09T16:00:30.192Z</time>
      </trkpt>
      <trkpt lat="43.03399" lon="0.69654">
        <ele>424.265021</ele>
        <time>2022-08-09T16:00:41.726Z</time>
      </trkpt>
      <trkpt lat="43.03387" lon="0.69568">
        <ele>424.126123</ele>
        <time>2022-08-09T16:00:50.779Z</time>
      </trkpt>
      <trkpt lat="43.03387" lon="0.69516">
        <ele>424.042901</ele>
        <time>2022-08-09T16:00:58.521Z</time>
      </trkpt>
      <trkpt lat="43.03399" lon="0.69424">
        <ele>424.339596</ele>
        <time>2022-08-09T16:01:14.184Z</time>
      </trkpt>
      <trkpt lat="43.03387" lon="0.69381">
        <ele>424.882613</ele>
        <time>2022-08-09T16:01:21.937Z</time>
      </trkpt>
      <trkpt lat="43.03356" lon="0.69296">
        <ele>426.014108</ele>
        <time>2022-08-09T16:01:37.243Z</time>
      </trkpt>
      <trkpt lat="43.03334" lon="0.69168">
        <ele>426.801237</ele>
        <time>2022-08-09T16:01:55.752Z</time>
      </trkpt>
      <trkpt lat="43.03334" lon="0.69121">
        <ele>426.750874</ele>
        <time>2022-08-09T16:02:01.106Z</time>
      </trkpt>
      <trkpt lat="43.03341" lon="0.6909">
        <ele>426.715938</ele>
        <time>2022-08-09T16:02:04.241Z</time>
      </trkpt>
      <trkpt lat="43.0334" lon="0.68967">
        <ele>426.457658</ele>
        <time>2022-08-09T16:02:15.558Z</time>
      </trkpt>
      <trkpt lat="43.03316" lon="0.68742">
        <ele>424.478166</ele>
        <time>2022-08-09T16:02:35.071Z</time>
      </trkpt>
      <trkpt lat="43.03319" lon="0.68719">
        <ele>424.417131</ele>
        <time>2022-08-09T16:02:36.946Z</time>
      </trkpt>
      <trkpt lat="43.03333" lon="0.68688">
        <ele>424.346179</ele>
        <time>2022-08-09T16:02:40.292Z</time>
      </trkpt>
      <trkpt lat="43.03399" lon="0.68563">
        <ele>424.049893</ele>
        <time>2022-08-09T16:02:55.864Z</time>
      </trkpt>
      <trkpt lat="43.03389" lon="0.68501">
        <ele>424.317723</ele>
        <time>2022-08-09T16:03:04.470Z</time>
      </trkpt>
      <trkpt lat="43.03322" lon="0.68437">
        <ele>425.560569</ele>
        <time>2022-08-09T16:03:21.602Z</time>
      </trkpt>
      <trkpt lat="43.03311" lon="0.68427">
        <ele>425.762374</ele>
        <time>2022-08-09T16:03:24.487Z</time>
      </trkpt>
      <trkpt lat="43.0321" lon="0.68307">
        <ele>428.150354</ele>
        <time>2022-08-09T16:03:54.893Z</time>
      </trkpt>
      <trkpt lat="43.03135" lon="0.68173">
        <ele>430.663445</ele>
        <time>2022-08-09T16:04:23.026Z</time>
      </trkpt>
      <trkpt lat="43.03111" lon="0.68119">
        <ele>431.660949</ele>
        <time>2022-08-09T16:04:34.690Z</time>
      </trkpt>
      <trkpt lat="43.03104" lon="0.68075">
        <ele>432.371597</ele>
        <time>2022-08-09T16:04:42.787Z</time>
      </trkpt>
      <trkpt lat="43.03075" lon="0.67978">
        <ele>434.034176</ele>
        <time>2022-08-09T16:05:00.571Z</time>
      </trkpt>
      <trkpt lat="43.03075" lon="0.67978">
        <ele>434.034176</ele>
        <time>2022-08-09T16:05:00.778Z</time>
      </trkpt>
      <trkpt lat="43.03056" lon="0.67971">
        <ele>434.332006</ele>
        <time>2022-08-09T16:05:04.246Z</time>
      </trkpt>
      <trkpt lat="43.03055" lon="0.67971">
        <ele>434.348901</ele>
        <time>2022-08-09T16:05:04.665Z</time>
      </trkpt>
      <trkpt lat="43.03044" lon="0.6796">
        <ele>434.465201</ele>
        <time>2022-08-09T16:05:07.152Z</time>
      </trkpt>
      <trkpt lat="43.03028" lon="0.67923">
        <ele>434.751635</ele>
        <time>2022-08-09T16:05:13.504Z</time>
      </trkpt>
      <trkpt lat="43.03008" lon="0.67835">
        <ele>435.35917</ele>
        <time>2022-08-09T16:05:25.902Z</time>
      </trkpt>
      <trkpt lat="43.02987" lon="0.67771">
        <ele>435.826021</ele>
        <time>2022-08-09T16:05:34.384Z</time>
      </trkpt>
      <trkpt lat="43.0299" lon="0.67704">
        <ele>436.009013</ele>
        <time>2022-08-09T16:05:44.031Z</time>
      </trkpt>
      <trkpt lat="43.03009" lon="0.67609">
        <ele>436.227136</ele>
        <time>2022-08-09T16:05:58.965Z</time>
      </trkpt>
      <trkpt lat="43.03027" lon="0.67517">
        <ele>436.425549</ele>
        <time>2022-08-09T16:06:14.518Z</time>
      </trkpt>
      <trkpt lat="43.03043" lon="0.6747">
        <ele>436.425549</ele>
        <time>2022-08-09T16:06:23.550Z</time>
      </trkpt>
      <trkpt lat="43.03048" lon="0.6737">
        <ele>436.425549</ele>
        <time>2022-08-09T16:06:40.915Z</time>
      </trkpt>
      <trkpt lat="43.03055" lon="0.67335">
        <ele>436.425549</ele>
        <time>2022-08-09T16:06:47.182Z</time>
      </trkpt>
      <trkpt lat="43.03076" lon="0.67227">
        <ele>436.425549</ele>
        <time>2022-08-09T16:07:05.578Z</time>
      </trkpt>
      <trkpt lat="43.03084" lon="0.67203">
        <ele>436.425549</ele>
        <time>2022-08-09T16:07:10.022Z</time>
      </trkpt>
    </trkseg>
  </trk>
</gpx>